Observation data for Endee on 08/13/2019      Previous  Date  Next       Current Mesonet Observations  Soil Data  Daily Summary Page  Observations in Plain Language
KEN1 130500Z 02003KT 22/19 A3007 RMK A01 T02200185  RH  080%=      5-min Rain = 0
KEN1 130501Z 01003KT 22/19 A3007 RMK A01 T02200186  RH  081%=      5-min Rain = 0
KEN1 130502Z 02003KT 22/19 A3007 RMK A01 T02190186  RH  082%=      5-min Rain = 0
KEN1 130503Z 02003KT 22/19 A3007 RMK A01 T02190189  RH  083%=      5-min Rain = 0
KEN1 130504Z 01003KT 22/19 A3007 RMK A01 T02190190  RH  084%=      5-min Rain = 0
KEN1 130505Z 00003KT 22/19 A3007 RMK A01 T02190189  RH  083%=      5-min Rain = 0
KEN1 130506Z 35002KT 22/19 A3007 RMK A01 T02190190  RH  084%=      5-min Rain = 0
KEN1 130507Z 35002KT 22/19 A3007 RMK A01 T02190190  RH  084%=      5-min Rain = 0
KEN1 130508Z 36002KT 22/19 A3007 RMK A01 T02190190  RH  084%=      5-min Rain = 0
KEN1 130509Z 00001KT 22/19 A3007 RMK A01 T02190191  RH  084%=      5-min Rain = 0
KEN1 130510Z 00001KT 22/19 A3007 RMK A01 T02180191  RH  084%=      5-min Rain = 0
KEN1 130511Z 01001KT 22/19 A3007 RMK A01 T02180191  RH  085%=      5-min Rain = 0
KEN1 130512Z 01001KT 22/19 A3007 RMK A01 T02180193  RH  085%=      5-min Rain = 0
KEN1 130513Z 02001KT 22/19 A3007 RMK A01 T02180193  RH  086%=      5-min Rain = 0
KEN1 130514Z 02000KT 22/20 A3007 RMK A01 T02180195  RH  087%=      5-min Rain = 0
KEN1 130515Z 00000KT 22/20 A3007 RMK A01 T02180198  RH  088%=      5-min Rain = 0
KEN1 130516Z 00000KT 22/20 A3007 RMK A01 T02170198  RH  089%=      5-min Rain = 0
KEN1 130517Z 26001KT 22/20 A3007 RMK A01 T02160196  RH  088%=      5-min Rain = 0
KEN1 130518Z 25001KT 22/20 A3007 RMK A01 T02150196  RH  089%=      5-min Rain = 0
KEN1 130519Z 24002KT 22/20 A3007 RMK A01 T02150196  RH  089%=      5-min Rain = 0
KEN1 130520Z 24002KT 22/20 A3007 RMK A01 T02150195  RH  089%=      5-min Rain = 0
KEN1 130521Z 23003KT 21/20 A3007 RMK A01 T02140195  RH  089%=      5-min Rain = 0
KEN1 130522Z 24003KT 21/20 A3007 RMK A01 T02130195  RH  089%=      5-min Rain = 0
KEN1 130523Z 24003KT 21/19 A3007 RMK A01 T02130194  RH  089%=      5-min Rain = 0
KEN1 130524Z 24002KT 21/19 A3007 RMK A01 T02120193  RH  089%=      5-min Rain = 0
KEN1 130525Z 26002KT 21/19 A3007 RMK A01 T02120192  RH  088%=      5-min Rain = 0
KEN1 130526Z 28002KT 21/19 A3008 RMK A01 T02120191  RH  087%=      5-min Rain = 0
KEN1 130527Z 28002KT 21/19 A3008 RMK A01 T02130190  RH  087%=      5-min Rain = 0
KEN1 130528Z 29002KT 21/19 A3008 RMK A01 T02130192  RH  088%=      5-min Rain = 0
KEN1 130529Z 30002KT 21/19 A3008 RMK A01 T02140193  RH  088%=      5-min Rain = 0
KEN1 130530Z 31003KT 21/19 A3008 RMK A01 T02140190  RH  086%=      5-min Rain = 0
KEN1 130531Z 31003KT 22/19 A3008 RMK A01 T02150190  RH  086%=      5-min Rain = 0
KEN1 130532Z 31003KT 22/19 A3008 RMK A01 T02160191  RH  086%=      5-min Rain = 0
KEN1 130533Z 31004KT 22/19 A3008 RMK A01 T02160193  RH  087%=      5-min Rain = 0
KEN1 130534Z 31004KT 22/20 A3008 RMK A01 T02160195  RH  088%=      5-min Rain = 0
KEN1 130535Z 31004KT 22/20 A3008 RMK A01 T02160195  RH  088%=      5-min Rain = 0
KEN1 130536Z 32003KT 22/20 A3008 RMK A01 T02150196  RH  089%=      5-min Rain = 0
KEN1 130537Z 31003KT 22/20 A3008 RMK A01 T02150195  RH  088%=      5-min Rain = 0
KEN1 130538Z 31003KT 22/19 A3008 RMK A01 T02150193  RH  088%=      5-min Rain = 0
KEN1 130539Z 31003KT 22/19 A3008 RMK A01 T02150194  RH  088%=      5-min Rain = 0
KEN1 130540Z 31003KT 22/19 A3008 RMK A01 T02150194  RH  088%=      5-min Rain = 0
KEN1 130541Z 31003KT 22/19 A3008 RMK A01 T02150192  RH  087%=      5-min Rain = 0
KEN1 130542Z 31003KT 22/19 A3008 RMK A01 T02150191  RH  086%=      5-min Rain = 0
KEN1 130543Z 30003KT 22/19 A3008 RMK A01 T02150191  RH  086%=      5-min Rain = 0
KEN1 130544Z 31003KT 22/19 A3008 RMK A01 T02150191  RH  086%=      5-min Rain = 0
KEN1 130545Z 31003KT 22/19 A3008 RMK A01 T02150192  RH  086%=      5-min Rain = 0
KEN1 130546Z 31003KT 22/19 A3008 RMK A01 T02150191  RH  086%=      5-min Rain = 0
KEN1 130547Z 31002KT 22/19 A3008 RMK A01 T02160191  RH  086%=      5-min Rain = 0
KEN1 130548Z 31003KT 22/19 A3008 RMK A01 T02150190  RH  085%=      5-min Rain = 0
KEN1 130549Z 31003KT 22/19 A3008 RMK A01 T02150189  RH  085%=      5-min Rain = 0
KEN1 130550Z 32003KT 22/19 A3008 RMK A01 T02150189  RH  085%=      5-min Rain = 0
KEN1 130551Z 32003KT 22/19 A3008 RMK A01 T02150190  RH  086%=      5-min Rain = 0
KEN1 130552Z 32003KT 22/19 A3008 RMK A01 T02150192  RH  087%=      5-min Rain = 0
KEN1 130553Z 32004KT 21/19 A3008 RMK A01 T02140192  RH  087%=      5-min Rain = 0
KEN1 130554Z 32004KT 21/19 A3008 RMK A01 T02130191  RH  087%=      5-min Rain = 0
KEN1 130555Z 33004KT 21/19 A3008 RMK A01 T02130190  RH  087%=      5-min Rain = 0
KEN1 130556Z 33004KT 21/19 A3008 RMK A01 T02120189  RH  087%=      5-min Rain = 0
KEN1 130557Z 33004KT 21/19 A3008 RMK A01 T02120190  RH  087%=      5-min Rain = 0
KEN1 130558Z 33004KT 21/19 A3008 RMK A01 T02120189  RH  087%=      5-min Rain = 0
KEN1 130559Z 33004KT 21/19 A3008 RMK A01 T02120189  RH  087%=      5-min Rain = 0
KEN1 130600Z 33003KT 21/19 A3009 RMK A01 T02120189  RH  086%=      5-min Rain = 0
KEN1 130601Z 33003KT 21/19 A3009 RMK A01 T02120188  RH  086%=      5-min Rain = 0
KEN1 130602Z 34003KT 21/19 A3009 RMK A01 T02120188  RH  086%=      5-min Rain = 0
KEN1 130603Z 34003KT 21/19 A3009 RMK A01 T02120187  RH  086%=      5-min Rain = 0
KEN1 130604Z 34003KT 21/19 A3009 RMK A01 T02110187  RH  086%=      5-min Rain = 0
KEN1 130605Z 35003KT 21/19 A3008 RMK A01 T02110187  RH  086%=      5-min Rain = 0
KEN1 130606Z 00003KT 21/19 A3008 RMK A01 T02110187  RH  086%=      5-min Rain = 0
KEN1 130607Z 01004KT 21/19 A3008 RMK A01 T02110186  RH  086%=      5-min Rain = 0
KEN1 130608Z 01004KT 21/18 A3008 RMK A01 T02090184  RH  086%=      5-min Rain = 0
KEN1 130609Z 01005KT 21/18 A3008 RMK A01 T02080183  RH  086%=      5-min Rain = 0
KEN1 130610Z 01005KT 21/18 A3009 RMK A01 T02060182  RH  086%=      5-min Rain = 0
KEN1 130611Z 01006KT 20/18 A3009 RMK A01 T02040181  RH  087%=      5-min Rain = 0
KEN1 130612Z 01007KT 20/18 A3009 RMK A01 T02030181  RH  087%=      5-min Rain = 0
KEN1 130613Z 01007KT 20/18 A3009 RMK A01 T02020180  RH  087%=      5-min Rain = 0
KEN1 130614Z 00008KT 20/18 A3009 RMK A01 T02010180  RH  088%=      5-min Rain = 0
KEN1 130615Z 00008KT 20/18 A3009 RMK A01 T02010180  RH  088%=      5-min Rain = 0
KEN1 130616Z 00008KT 20/18 A3009 RMK A01 T02000180  RH  088%=      5-min Rain = 0
KEN1 130617Z 00008KT 20/18 A3009 RMK A01 T02000180  RH  088%=      5-min Rain = 0
KEN1 130618Z 00007KT 20/18 A3009 RMK A01 T01990180  RH  088%=      5-min Rain = 0
KEN1 130619Z 35007KT 20/18 A3009 RMK A01 T01990180  RH  089%=      5-min Rain = 0
KEN1 130620Z 36006KT 20/18 A3009 RMK A01 T01980180  RH  089%=      5-min Rain = 0
KEN1 130621Z 35006KT 20/18 A3009 RMK A01 T01980180  RH  090%=      5-min Rain = 0
KEN1 130622Z 35006KT 20/18 A3009 RMK A01 T01990181  RH  090%=      5-min Rain = 0
KEN1 130623Z 35006KT 20/18 A3009 RMK A01 T02010182  RH  089%=      5-min Rain = 0
KEN1 130624Z 35005KT 20/18 A3009 RMK A01 T02020182  RH  088%=      5-min Rain = 0
KEN1 130625Z 35006KT 20/18 A3009 RMK A01 T02040183  RH  088%=      5-min Rain = 0
KEN1 130626Z 35006KT 20/18 A301 RMK A01 T02040183  RH  087%=      5-min Rain = 0
KEN1 130627Z 35006KT 20/18 A301 RMK A01 T02040182  RH  087%=      5-min Rain = 0
KEN1 130628Z 35007KT 21/18 A301 RMK A01 T02050182  RH  087%=      5-min Rain = 0
KEN1 130629Z 35007KT 21/18 A301 RMK A01 T02050182  RH  087%=      5-min Rain = 0
KEN1 130630Z 36006KT 21/18 A301 RMK A01 T02050181  RH  086%=      5-min Rain = 0
KEN1 130631Z 36007KT 21/18 A301 RMK A01 T02050181  RH  086%=      5-min Rain = 0
KEN1 130632Z 00006KT 21/18 A301 RMK A01 T02050181  RH  086%=      5-min Rain = 0
KEN1 130633Z 00007KT 21/18 A3009 RMK A01 T02050180  RH  086%=      5-min Rain = 0
KEN1 130634Z 01007KT 20/18 A3009 RMK A01 T02040179  RH  086%=      5-min Rain = 0
KEN1 130635Z 02007KT 20/18 A3009 RMK A01 T02020178  RH  086%=      5-min Rain = 0
KEN1 130636Z 02007KT 20/18 A3009 RMK A01 T02010178  RH  087%=      5-min Rain = 0
KEN1 130637Z 03006KT 20/18 A3009 RMK A01 T01990178  RH  088%=      5-min Rain = 0
KEN1 130638Z 03007KT 20/18 A3009 RMK A01 T01980178  RH  088%=      5-min Rain = 0
KEN1 130639Z 03007KT 20/18 A3009 RMK A01 T01980179  RH  089%=      5-min Rain = 0
KEN1 130640Z 03006KT 20/18 A3009 RMK A01 T01970179  RH  089%=      5-min Rain = 0
KEN1 130641Z 03006KT 20/18 A3009 RMK A01 T01970179  RH  089%=      5-min Rain = 0
KEN1 130642Z 03006KT 20/18 A3009 RMK A01 T01970179  RH  090%=      5-min Rain = 0
KEN1 130643Z 03006KT 20/18 A3009 RMK A01 T01960179  RH  090%=      5-min Rain = 0
KEN1 130644Z 03006KT 20/18 A3009 RMK A01 T01960179  RH  090%=      5-min Rain = 0
KEN1 130645Z 04006KT 20/18 A3009 RMK A01 T01950179  RH  090%=      5-min Rain = 0
KEN1 130646Z 03006KT 20/18 A3009 RMK A01 T01950180  RH  091%=      5-min Rain = 0
KEN1 130647Z 03006KT 20/18 A3009 RMK A01 T01950180  RH  091%=      5-min Rain = 0
KEN1 130648Z 03006KT 20/18 A3009 RMK A01 T01950180  RH  091%=      5-min Rain = 0
KEN1 130649Z 03006KT 20/18 A3009 RMK A01 T01950180  RH  091%=      5-min Rain = 0
KEN1 130650Z 03006KT 20/18 A3009 RMK A01 T01950180  RH  091%=      5-min Rain = 0
KEN1 130651Z 02006KT 20/18 A3009 RMK A01 T01950180  RH  091%=      5-min Rain = 0
KEN1 130652Z 02006KT 20/18 A3009 RMK A01 T01950180  RH  091%=      5-min Rain = 0
KEN1 130653Z 02006KT 20/18 A3009 RMK A01 T01950180  RH  091%=      5-min Rain = 0
KEN1 130654Z 02006KT 20/18 A3009 RMK A01 T01950179  RH  091%=      5-min Rain = 0
KEN1 130655Z 02006KT 20/18 A3009 RMK A01 T01950179  RH  091%=      5-min Rain = 0
KEN1 130656Z 02006KT 20/18 A3009 RMK A01 T01950180  RH  091%=      5-min Rain = 0
KEN1 130657Z 02006KT 20/18 A3009 RMK A01 T01950180  RH  091%=      5-min Rain = 0
KEN1 130658Z 02006KT 20/18 A3009 RMK A01 T01950179  RH  091%=      5-min Rain = 0
KEN1 130659Z 02006KT 20/18 A3009 RMK A01 T01950179  RH  091%=      5-min Rain = 0
KEN1 130700Z 02006KT 19/18 A3009 RMK A01 T01940179  RH  091%=      5-min Rain = 0
KEN1 130701Z 02006KT 19/18 A3009 RMK A01 T01940179  RH  091%=      5-min Rain = 0
KEN1 130702Z 02006KT 19/18 A3009 RMK A01 T01940179  RH  091%=      5-min Rain = 0
KEN1 130703Z 01006KT 19/18 A3009 RMK A01 T01940179  RH  092%=      5-min Rain = 0
KEN1 130704Z 01005KT 19/18 A3009 RMK A01 T01940180  RH  092%=      5-min Rain = 0
KEN1 130705Z 01005KT 19/18 A3009 RMK A01 T01940180  RH  092%=      5-min Rain = 0
KEN1 130706Z 01005KT 19/18 A3009 RMK A01 T01940180  RH  092%=      5-min Rain = 0
KEN1 130707Z 01005KT 19/18 A3009 RMK A01 T01940180  RH  092%=      5-min Rain = 0
KEN1 130708Z 01005KT 20/18 A3009 RMK A01 T01950181  RH  092%=      5-min Rain = 0
KEN1 130709Z 01005KT 20/18 A3009 RMK A01 T01950182  RH  092%=      5-min Rain = 0
KEN1 130710Z 01005KT 20/18 A3009 RMK A01 T01960182  RH  092%=      5-min Rain = 0
KEN1 130711Z 01006KT 20/18 A301 RMK A01 T01960183  RH  092%=      5-min Rain = 0
KEN1 130712Z 01006KT 20/18 A301 RMK A01 T01970182  RH  091%=      5-min Rain = 0
KEN1 130713Z 01005KT 20/18 A301 RMK A01 T01960180  RH  090%=      5-min Rain = 0
KEN1 130714Z 01005KT 20/18 A301 RMK A01 T01970180  RH  090%=      5-min Rain = 0
KEN1 130715Z 02005KT 20/18 A301 RMK A01 T01970180  RH  090%=      5-min Rain = 0
KEN1 130716Z 02005KT 20/18 A301 RMK A01 T01960179  RH  090%=      5-min Rain = 0
KEN1 130717Z 02005KT 20/18 A301 RMK A01 T01960179  RH  090%=      5-min Rain = 0
KEN1 130718Z 02005KT 20/18 A301 RMK A01 T01960179  RH  090%=      5-min Rain = 0
KEN1 130719Z 02005KT 20/18 A301 RMK A01 T01960179  RH  090%=      5-min Rain = 0
KEN1 130720Z 03005KT 20/18 A301 RMK A01 T01950179  RH  090%=      5-min Rain = 0
KEN1 130721Z 03005KT 20/18 A301 RMK A01 T01950178  RH  090%=      5-min Rain = 0
KEN1 130722Z 03005KT 19/18 A301 RMK A01 T01940178  RH  090%=      5-min Rain = 0
KEN1 130723Z 03005KT 19/18 A301 RMK A01 T01940178  RH  091%=      5-min Rain = 0
KEN1 130724Z 03005KT 19/18 A301 RMK A01 T01940179  RH  091%=      5-min Rain = 0
KEN1 130725Z 03005KT 19/18 A301 RMK A01 T01930179  RH  091%=      5-min Rain = 0
KEN1 130726Z 03005KT 19/18 A301 RMK A01 T01930179  RH  091%=      5-min Rain = 0
KEN1 130727Z 03005KT 19/18 A301 RMK A01 T01920178  RH  092%=      5-min Rain = 0
KEN1 130728Z 03005KT 19/18 A301 RMK A01 T01920179  RH  092%=      5-min Rain = 0
KEN1 130729Z 04005KT 19/18 A301 RMK A01 T01920178  RH  092%=      5-min Rain = 0
KEN1 130730Z 03006KT 19/18 A301 RMK A01 T01920178  RH  092%=      5-min Rain = 0
KEN1 130731Z 03006KT 19/18 A301 RMK A01 T01920179  RH  092%=      5-min Rain = 0
KEN1 130732Z 03006KT 19/18 A301 RMK A01 T01920179  RH  092%=      5-min Rain = 0
KEN1 130733Z 03006KT 19/18 A301 RMK A01 T01920179  RH  092%=      5-min Rain = 0
KEN1 130734Z 03006KT 19/18 A301 RMK A01 T01910178  RH  092%=      5-min Rain = 0
KEN1 130735Z 03006KT 19/18 A301 RMK A01 T01920178  RH  092%=      5-min Rain = 0
KEN1 130736Z 03006KT 19/18 A301 RMK A01 T01920178  RH  092%=      5-min Rain = 0
KEN1 130737Z 04007KT 19/18 A301 RMK A01 T01920179  RH  092%=      5-min Rain = 0
KEN1 130738Z 04006KT 19/18 A301 RMK A01 T01920179  RH  092%=      5-min Rain = 0
KEN1 130739Z 04006KT 19/18 A301 RMK A01 T01920179  RH  092%=      5-min Rain = 0
KEN1 130740Z 05007KT 19/18 A301 RMK A01 T01920179  RH  092%=      5-min Rain = 0
KEN1 130741Z 05007KT 19/18 A301 RMK A01 T01920179  RH  092%=      5-min Rain = 0
KEN1 130742Z 05007KT 19/18 A301 RMK A01 T01920179  RH  092%=      5-min Rain = 0
KEN1 130743Z 05007KT 19/18 A301 RMK A01 T01910179  RH  092%=      5-min Rain = 0
KEN1 130744Z 05007KT 19/18 A301 RMK A01 T01910179  RH  092%=      5-min Rain = 0
KEN1 130745Z 05006KT 19/18 A301 RMK A01 T01920179  RH  092%=      5-min Rain = 0
KEN1 130746Z 04006KT 19/18 A301 RMK A01 T01920179  RH  092%=      5-min Rain = 0
KEN1 130747Z 04006KT 19/18 A301 RMK A01 T01920179  RH  092%=      5-min Rain = 0
KEN1 130748Z 04005KT 19/18 A301 RMK A01 T01930180  RH  092%=      5-min Rain = 0
KEN1 130749Z 05005KT 19/18 A301 RMK A01 T01930179  RH  092%=      5-min Rain = 0
KEN1 130750Z 05005KT 19/18 A301 RMK A01 T01930179  RH  092%=      5-min Rain = 0
KEN1 130751Z 05005KT 19/18 A301 RMK A01 T01930179  RH  092%=      5-min Rain = 0
KEN1 130752Z 05004KT 19/18 A301 RMK A01 T01930179  RH  092%=      5-min Rain = 0
KEN1 130753Z 05004KT 19/18 A301 RMK A01 T01930180  RH  092%=      5-min Rain = 0
KEN1 130754Z 06005KT 19/18 A301 RMK A01 T01920179  RH  092%=      5-min Rain = 0
KEN1 130755Z 05005KT 19/18 A301 RMK A01 T01920180  RH  092%=      5-min Rain = 0
KEN1 130756Z 05005KT 19/18 A301 RMK A01 T01920180  RH  092%=      5-min Rain = 0
KEN1 130757Z 05005KT 19/18 A301 RMK A01 T01920180  RH  092%=      5-min Rain = 0
KEN1 130758Z 05005KT 19/18 A301 RMK A01 T01920180  RH  092%=      5-min Rain = 0
KEN1 130759Z 05005KT 19/18 A301 RMK A01 T01920180  RH  092%=      5-min Rain = 0
KEN1 130800Z 05005KT 19/18 A301 RMK A01 T01930180  RH  092%=      5-min Rain = 0
KEN1 130801Z 05005KT 19/18 A301 RMK A01 T01930180  RH  092%=      5-min Rain = 0
KEN1 130802Z 05005KT 19/18 A301 RMK A01 T01920179  RH  092%=      5-min Rain = 0
KEN1 130803Z 05005KT 19/18 A301 RMK A01 T01920179  RH  092%=      5-min Rain = 0
KEN1 130804Z 05005KT 19/18 A301 RMK A01 T01920179  RH  092%=      5-min Rain = 0
KEN1 130805Z 05005KT 19/18 A301 RMK A01 T01920179  RH  092%=      5-min Rain = 0
KEN1 130806Z 05004KT 19/18 A301 RMK A01 T01920179  RH  092%=      5-min Rain = 0
KEN1 130807Z 05005KT 19/18 A301 RMK A01 T01910179  RH  093%=      5-min Rain = 0
KEN1 130808Z 04004KT 19/18 A301 RMK A01 T01910179  RH  093%=      5-min Rain = 0
KEN1 130809Z 04004KT 19/18 A301 RMK A01 T01910179  RH  093%=      5-min Rain = 0
KEN1 130810Z 03004KT 19/18 A301 RMK A01 T01910179  RH  093%=      5-min Rain = 0
KEN1 130811Z 03004KT 19/18 A301 RMK A01 T01900179  RH  093%=      5-min Rain = 0
KEN1 130812Z 03004KT 19/18 A301 RMK A01 T01900180  RH  094%=      5-min Rain = 0
KEN1 130813Z 03003KT 19/18 A301 RMK A01 T01900180  RH  094%=      5-min Rain = 0
KEN1 130814Z 03003KT 19/18 A301 RMK A01 T01900180  RH  094%=      5-min Rain = 0
KEN1 130815Z 03003KT 19/18 A301 RMK A01 T01890180  RH  094%=      5-min Rain = 0
KEN1 130816Z 03003KT 19/18 A301 RMK A01 T01900181  RH  095%=      5-min Rain = 0
KEN1 130817Z 03003KT 19/18 A301 RMK A01 T01900182  RH  095%=      5-min Rain = 0
KEN1 130818Z 03003KT 19/18 A301 RMK A01 T01900182  RH  095%=      5-min Rain = 0
KEN1 130819Z 03003KT 19/18 A301 RMK A01 T01900182  RH  095%=      5-min Rain = 0
KEN1 130820Z 03004KT 19/18 A301 RMK A01 T01900181  RH  094%=      5-min Rain = 0
KEN1 130821Z 03004KT 19/18 A301 RMK A01 T01900180  RH  094%=      5-min Rain = 0
KEN1 130822Z 02004KT 19/18 A301 RMK A01 T01900180  RH  094%=      5-min Rain = 0
KEN1 130823Z 02004KT 19/18 A301 RMK A01 T01900180  RH  094%=      5-min Rain = 0
KEN1 130824Z 01004KT 19/18 A301 RMK A01 T01900181  RH  094%=      5-min Rain = 0
KEN1 130825Z 01003KT 19/18 A301 RMK A01 T01900181  RH  095%=      5-min Rain = 0
KEN1 130826Z 01003KT 19/18 A301 RMK A01 T01900181  RH  095%=      5-min Rain = 0
KEN1 130827Z 02004KT 19/18 A301 RMK A01 T01900181  RH  095%=      5-min Rain = 0
KEN1 130828Z 01003KT 19/18 A301 RMK A01 T01900181  RH  095%=      5-min Rain = 0
KEN1 130829Z 01003KT 19/18 A301 RMK A01 T01900182  RH  095%=      5-min Rain = 0
KEN1 130830Z 01003KT 19/18 A301 RMK A01 T01910182  RH  095%=      5-min Rain = 0
KEN1 130831Z 01003KT 19/18 A301 RMK A01 T01910182  RH  095%=      5-min Rain = 0
KEN1 130832Z 01003KT 19/18 A301 RMK A01 T01910182  RH  095%=      5-min Rain = 0
KEN1 130833Z 01003KT 19/18 A301 RMK A01 T01910182  RH  095%=      5-min Rain = 0
KEN1 130834Z 02004KT 19/18 A301 RMK A01 T01910182  RH  095%=      5-min Rain = 0
KEN1 130835Z 03004KT 19/18 A301 RMK A01 T01910182  RH  094%=      5-min Rain = 0
KEN1 130836Z 03004KT 19/18 A301 RMK A01 T01890179  RH  094%=      5-min Rain = 0
KEN1 130837Z 03004KT 19/18 A301 RMK A01 T01880178  RH  094%=      5-min Rain = 0
KEN1 130838Z 02004KT 19/18 A301 RMK A01 T01870177  RH  094%=      5-min Rain = 0
KEN1 130839Z 02004KT 19/18 A301 RMK A01 T01870177  RH  094%=      5-min Rain = 0
KEN1 130840Z 02004KT 19/18 A301 RMK A01 T01870177  RH  094%=      5-min Rain = 0
KEN1 130841Z 01003KT 19/18 A301 RMK A01 T01870177  RH  094%=      5-min Rain = 0
KEN1 130842Z 02003KT 19/18 A301 RMK A01 T01870177  RH  094%=      5-min Rain = 0
KEN1 130843Z 02003KT 19/18 A301 RMK A01 T01890178  RH  094%=      5-min Rain = 0
KEN1 130844Z 03003KT 19/18 A301 RMK A01 T01890178  RH  093%=      5-min Rain = 0
KEN1 130845Z 02003KT 19/18 A301 RMK A01 T01900178  RH  093%=      5-min Rain = 0
KEN1 130846Z 02003KT 19/18 A301 RMK A01 T01900178  RH  092%=      5-min Rain = 0
KEN1 130847Z 01003KT 19/18 A301 RMK A01 T01900178  RH  093%=      5-min Rain = 0
KEN1 130848Z 01003KT 19/18 A301 RMK A01 T01900178  RH  093%=      5-min Rain = 0
KEN1 130849Z 02003KT 19/18 A301 RMK A01 T01890177  RH  093%=      5-min Rain = 0
KEN1 130850Z 02003KT 19/18 A301 RMK A01 T01880177  RH  093%=      5-min Rain = 0
KEN1 130851Z 02003KT 19/18 A301 RMK A01 T01870177  RH  093%=      5-min Rain = 0
KEN1 130852Z 02003KT 19/18 A301 RMK A01 T01870177  RH  094%=      5-min Rain = 0
KEN1 130853Z 03002KT 19/18 A301 RMK A01 T01870177  RH  094%=      5-min Rain = 0
KEN1 130854Z 04002KT 19/18 A301 RMK A01 T01870177  RH  094%=      5-min Rain = 0
KEN1 130855Z 05002KT 19/18 A301 RMK A01 T01860176  RH  094%=      5-min Rain = 0
KEN1 130856Z 06002KT 19/18 A301 RMK A01 T01850176  RH  094%=      5-min Rain = 0
KEN1 130857Z 06002KT 19/18 A301 RMK A01 T01850177  RH  095%=      5-min Rain = 0
KEN1 130858Z 06002KT 19/18 A301 RMK A01 T01850178  RH  095%=      5-min Rain = 0
KEN1 130859Z 05002KT 19/18 A301 RMK A01 T01850178  RH  095%=      5-min Rain = 0
KEN1 130900Z 05003KT 19/18 A301 RMK A01 T01860178  RH  095%=      5-min Rain = 0
KEN1 130901Z 05002KT 19/18 A301 RMK A01 T01850177  RH  095%=      5-min Rain = 0
KEN1 130902Z 05002KT 18/18 A301 RMK A01 T01840176  RH  095%=      5-min Rain = 0
KEN1 130903Z 05002KT 18/18 A301 RMK A01 T01840175  RH  095%=      5-min Rain = 0
KEN1 130904Z 05002KT 18/18 A301 RMK A01 T01830175  RH  095%=      5-min Rain = 0
KEN1 130905Z 04002KT 18/18 A301 RMK A01 T01830176  RH  095%=      5-min Rain = 0
KEN1 130906Z 03003KT 18/18 A301 RMK A01 T01830176  RH  096%=      5-min Rain = 0
KEN1 130907Z 03003KT 18/18 A301 RMK A01 T01830176  RH  096%=      5-min Rain = 0
KEN1 130908Z 02003KT 18/18 A301 RMK A01 T01830176  RH  096%=      5-min Rain = 0
KEN1 130909Z 02003KT 18/18 A301 RMK A01 T01830176  RH  096%=      5-min Rain = 0
KEN1 130910Z 02003KT 18/18 A301 RMK A01 T01830176  RH  096%=      5-min Rain = 0
KEN1 130911Z 02003KT 18/18 A301 RMK A01 T01830176  RH  096%=      5-min Rain = 0
KEN1 130912Z 02003KT 18/18 A301 RMK A01 T01830176  RH  096%=      5-min Rain = 0
KEN1 130913Z 02003KT 18/18 A301 RMK A01 T01830176  RH  096%=      5-min Rain = 0
KEN1 130914Z 02003KT 18/18 A301 RMK A01 T01830176  RH  096%=      5-min Rain = 0
KEN1 130915Z 01003KT 18/18 A301 RMK A01 T01830176  RH  096%=      5-min Rain = 0
KEN1 130916Z 01003KT 18/18 A301 RMK A01 T01820176  RH  096%=      5-min Rain = 0
KEN1 130917Z 00003KT 18/18 A301 RMK A01 T01820176  RH  096%=      5-min Rain = 0
KEN1 130918Z 36003KT 18/18 A301 RMK A01 T01820176  RH  096%=      5-min Rain = 0
KEN1 130919Z 36002KT 18/18 A301 RMK A01 T01820177  RH  097%=      5-min Rain = 0
KEN1 130920Z 36002KT 18/18 A301 RMK A01 T01830178  RH  097%=      5-min Rain = 0
KEN1 130921Z 34001KT 18/18 A301 RMK A01 T01830178  RH  097%=      5-min Rain = 0
KEN1 130922Z 31000KT 18/18 A301 RMK A01 T01840179  RH  097%=      5-min Rain = 0
KEN1 130923Z 00000KT 18/18 A301 RMK A01 T01840180  RH  097%=      5-min Rain = 0
KEN1 130924Z 31000KT 19/18 A301 RMK A01 T01850180  RH  097%=      5-min Rain = 0
KEN1 130925Z 31001KT 19/18 A301 RMK A01 T01850180  RH  097%=      5-min Rain = 0
KEN1 130926Z 31000KT 19/18 A301 RMK A01 T01850181  RH  097%=      5-min Rain = 0
KEN1 130927Z 28000KT 19/18 A301 RMK A01 T01850181  RH  097%=      5-min Rain = 0
KEN1 130928Z 25001KT 19/18 A301 RMK A01 T01850181  RH  097%=      5-min Rain = 0
KEN1 130929Z 23001KT 19/18 A301 RMK A01 T01860181  RH  097%=      5-min Rain = 0
KEN1 130930Z 22001KT 19/18 A301 RMK A01 T01850181  RH  097%=      5-min Rain = 0
KEN1 130931Z 20001KT 19/18 A301 RMK A01 T01850180  RH  097%=      5-min Rain = 0
KEN1 130932Z 19002KT 19/18 A301 RMK A01 T01860181  RH  097%=      5-min Rain = 0
KEN1 130933Z 19001KT 19/18 A301 RMK A01 T01850181  RH  097%=      5-min Rain = 0
KEN1 130934Z 20001KT 19/18 A301 RMK A01 T01850181  RH  097%=      5-min Rain = 0
KEN1 130935Z 21001KT 19/18 A301 RMK A01 T01860181  RH  097%=      5-min Rain = 0
KEN1 130936Z 00000KT 19/18 A301 RMK A01 T01860181  RH  097%=      5-min Rain = 0
KEN1 130937Z 00000KT 19/18 A301 RMK A01 T01860181  RH  097%=      5-min Rain = 0
KEN1 130938Z 00000KT 19/18 A301 RMK A01 T01870181  RH  096%=      5-min Rain = 0
KEN1 130939Z 00000KT 19/18 A301 RMK A01 T01870181  RH  096%=      5-min Rain = 0
KEN1 130940Z 35000KT 19/18 A301 RMK A01 T01870180  RH  096%=      5-min Rain = 0
KEN1 130941Z 00001KT 19/18 A301 RMK A01 T01870180  RH  096%=      5-min Rain = 0
KEN1 130942Z 35001KT 19/18 A3011 RMK A01 T01870181  RH  096%=      5-min Rain = 0
KEN1 130943Z 36001KT 19/18 A3011 RMK A01 T01870180  RH  096%=      5-min Rain = 0
KEN1 130944Z 36001KT 19/18 A3011 RMK A01 T01870180  RH  096%=      5-min Rain = 0
KEN1 130945Z 00002KT 19/18 A3011 RMK A01 T01870179  RH  095%=      5-min Rain = 0
KEN1 130946Z 36003KT 19/18 A3011 RMK A01 T01860177  RH  095%=      5-min Rain = 0
KEN1 130947Z 00002KT 19/18 A3011 RMK A01 T01860177  RH  094%=      5-min Rain = 0
KEN1 130948Z 01003KT 19/18 A3011 RMK A01 T01860177  RH  094%=      5-min Rain = 0
KEN1 130949Z 01003KT 19/18 A3011 RMK A01 T01870177  RH  094%=      5-min Rain = 0
KEN1 130950Z 01004KT 19/18 A3011 RMK A01 T01860176  RH  093%=      5-min Rain = 0
KEN1 130951Z 01003KT 19/18 A3011 RMK A01 T01870175  RH  093%=      5-min Rain = 0
KEN1 130952Z 00003KT 19/17 A3011 RMK A01 T01860174  RH  093%=      5-min Rain = 0
KEN1 130953Z 00003KT 19/17 A3011 RMK A01 T01850174  RH  093%=      5-min Rain = 0
KEN1 130954Z 00003KT 19/17 A3011 RMK A01 T01850174  RH  093%=      5-min Rain = 0
KEN1 130955Z 00003KT 19/17 A3011 RMK A01 T01850174  RH  093%=      5-min Rain = 0
KEN1 130956Z 00003KT 18/17 A3011 RMK A01 T01840174  RH  093%=      5-min Rain = 0
KEN1 130957Z 00003KT 18/17 A3011 RMK A01 T01840173  RH  093%=      5-min Rain = 0
KEN1 130958Z 00003KT 18/17 A3011 RMK A01 T01840173  RH  093%=      5-min Rain = 0
KEN1 130959Z 00003KT 18/17 A3011 RMK A01 T01840173  RH  093%=      5-min Rain = 0
KEN1 131000Z 36003KT 18/17 A3011 RMK A01 T01840172  RH  093%=      5-min Rain = 0
KEN1 131001Z 35003KT 18/17 A3011 RMK A01 T01840172  RH  093%=      5-min Rain = 0
KEN1 131002Z 35003KT 18/17 A3011 RMK A01 T01840172  RH  093%=      5-min Rain = 0
KEN1 131003Z 34003KT 18/17 A3011 RMK A01 T01830172  RH  093%=      5-min Rain = 0
KEN1 131004Z 34003KT 18/17 A3011 RMK A01 T01830173  RH  094%=      5-min Rain = 0
KEN1 131005Z 34003KT 18/17 A3011 RMK A01 T01830173  RH  094%=      5-min Rain = 0
KEN1 131006Z 35003KT 18/17 A3011 RMK A01 T01830174  RH  094%=      5-min Rain = 0
KEN1 131007Z 34003KT 18/17 A3011 RMK A01 T01830174  RH  095%=      5-min Rain = 0
KEN1 131008Z 34002KT 18/18 A3011 RMK A01 T01830175  RH  095%=      5-min Rain = 0
KEN1 131009Z 33002KT 18/18 A3011 RMK A01 T01830175  RH  095%=      5-min Rain = 0
KEN1 131010Z 32002KT 18/18 A3011 RMK A01 T01840176  RH  095%=      5-min Rain = 0
KEN1 131011Z 32001KT 18/18 A3011 RMK A01 T01840177  RH  095%=      5-min Rain = 0
KEN1 131012Z 32001KT 18/18 A3011 RMK A01 T01840177  RH  096%=      5-min Rain = 0
KEN1 131013Z 33001KT 18/18 A3011 RMK A01 T01840178  RH  096%=      5-min Rain = 0
KEN1 131014Z 33001KT 19/18 A3011 RMK A01 T01850178  RH  096%=      5-min Rain = 0
KEN1 131015Z 34001KT 19/18 A3011 RMK A01 T01850178  RH  096%=      5-min Rain = 0
KEN1 131016Z 33001KT 18/18 A3011 RMK A01 T01840178  RH  096%=      5-min Rain = 0
KEN1 131017Z 33002KT 18/18 A3011 RMK A01 T01840177  RH  096%=      5-min Rain = 0
KEN1 131018Z 34001KT 18/18 A3011 RMK A01 T01840176  RH  096%=      5-min Rain = 0
KEN1 131019Z 33002KT 18/18 A3011 RMK A01 T01840177  RH  096%=      5-min Rain = 0
KEN1 131020Z 33001KT 18/18 A3011 RMK A01 T01830176  RH  096%=      5-min Rain = 0
KEN1 131021Z 33002KT 18/18 A3011 RMK A01 T01830177  RH  096%=      5-min Rain = 0
KEN1 131022Z 32001KT 18/18 A3011 RMK A01 T01830177  RH  096%=      5-min Rain = 0
KEN1 131023Z 33002KT 18/18 A3011 RMK A01 T01840178  RH  096%=      5-min Rain = 0
KEN1 131024Z 34002KT 18/18 A3011 RMK A01 T01840178  RH  096%=      5-min Rain = 0
KEN1 131025Z 35002KT 18/18 A3012 RMK A01 T01840178  RH  096%=      5-min Rain = 0
KEN1 131026Z 36002KT 18/18 A3012 RMK A01 T01840178  RH  096%=      5-min Rain = 0
KEN1 131027Z 01003KT 19/18 A3012 RMK A01 T01850177  RH  096%=      5-min Rain = 0
KEN1 131028Z 00002KT 19/18 A3012 RMK A01 T01850177  RH  095%=      5-min Rain = 0
KEN1 131029Z 00002KT 19/18 A3012 RMK A01 T01850177  RH  095%=      5-min Rain = 0
KEN1 131030Z 36003KT 19/18 A3012 RMK A01 T01860176  RH  094%=      5-min Rain = 0
KEN1 131031Z 36002KT 19/18 A3012 RMK A01 T01860175  RH  094%=      5-min Rain = 0
KEN1 131032Z 36003KT 19/17 A3012 RMK A01 T01850174  RH  093%=      5-min Rain = 0
KEN1 131033Z 35003KT 19/17 A3011 RMK A01 T01850173  RH  093%=      5-min Rain = 0
KEN1 131034Z 36002KT 18/17 A3011 RMK A01 T01840173  RH  093%=      5-min Rain = 0
KEN1 131035Z 35002KT 18/17 A3011 RMK A01 T01840173  RH  093%=      5-min Rain = 0
KEN1 131036Z 35002KT 18/17 A3011 RMK A01 T01840173  RH  093%=      5-min Rain = 0
KEN1 131037Z 35002KT 18/17 A3011 RMK A01 T01840173  RH  093%=      5-min Rain = 0
KEN1 131038Z 35002KT 18/17 A3011 RMK A01 T01840173  RH  093%=      5-min Rain = 0
KEN1 131039Z 01001KT 18/17 A3011 RMK A01 T01830172  RH  093%=      5-min Rain = 0
KEN1 131040Z 02002KT 18/17 A3012 RMK A01 T01830172  RH  093%=      5-min Rain = 0
KEN1 131041Z 02002KT 18/17 A3012 RMK A01 T01830172  RH  093%=      5-min Rain = 0
KEN1 131042Z 03002KT 18/17 A3012 RMK A01 T01830172  RH  093%=      5-min Rain = 0
KEN1 131043Z 05001KT 18/17 A3012 RMK A01 T01830172  RH  093%=      5-min Rain = 0
KEN1 131044Z 07001KT 18/17 A3012 RMK A01 T01830172  RH  094%=      5-min Rain = 0
KEN1 131045Z 10001KT 18/17 A3012 RMK A01 T01830173  RH  094%=      5-min Rain = 0
KEN1 131046Z 11002KT 18/17 A3012 RMK A01 T01830174  RH  094%=      5-min Rain = 0
KEN1 131047Z 10002KT 18/17 A3012 RMK A01 T01820173  RH  094%=      5-min Rain = 0
KEN1 131048Z 08001KT 18/17 A3012 RMK A01 T01820173  RH  095%=      5-min Rain = 0
KEN1 131049Z 09002KT 18/17 A3012 RMK A01 T01820173  RH  095%=      5-min Rain = 0
KEN1 131050Z 08002KT 18/17 A3012 RMK A01 T01810173  RH  095%=      5-min Rain = 0
KEN1 131051Z 09002KT 18/17 A3012 RMK A01 T01810173  RH  095%=      5-min Rain = 0
KEN1 131052Z 09002KT 18/17 A3012 RMK A01 T01810172  RH  095%=      5-min Rain = 0
KEN1 131053Z 09003KT 18/17 A3012 RMK A01 T01810172  RH  095%=      5-min Rain = 0
KEN1 131054Z 09003KT 18/17 A3012 RMK A01 T01810173  RH  095%=      5-min Rain = 0
KEN1 131055Z 09003KT 18/17 A3012 RMK A01 T01810173  RH  095%=      5-min Rain = 0
KEN1 131056Z 10003KT 18/17 A3012 RMK A01 T01810173  RH  095%=      5-min Rain = 0
KEN1 131057Z 10003KT 18/17 A3012 RMK A01 T01810172  RH  095%=      5-min Rain = 0
KEN1 131058Z 10003KT 18/17 A3012 RMK A01 T01810172  RH  095%=      5-min Rain = 0
KEN1 131059Z 09003KT 18/17 A3012 RMK A01 T01800171  RH  095%=      5-min Rain = 0
KEN1 131100Z 09004KT 18/17 A3012 RMK A01 T01790171  RH  095%=      5-min Rain = 0
KEN1 131101Z 09004KT 18/17 A3012 RMK A01 T01790171  RH  095%=      5-min Rain = 0
KEN1 131102Z 09003KT 18/17 A3012 RMK A01 T01790170  RH  095%=      5-min Rain = 0
KEN1 131103Z 09004KT 18/17 A3012 RMK A01 T01780170  RH  095%=      5-min Rain = 0
KEN1 131104Z 09004KT 18/17 A3012 RMK A01 T01780170  RH  095%=      5-min Rain = 0
KEN1 131105Z 09004KT 18/17 A3012 RMK A01 T01770170  RH  095%=      5-min Rain = 0
KEN1 131106Z 09004KT 18/17 A3012 RMK A01 T01770169  RH  095%=      5-min Rain = 0
KEN1 131107Z 09004KT 18/17 A3012 RMK A01 T01760169  RH  095%=      5-min Rain = 0
KEN1 131108Z 09004KT 18/17 A3012 RMK A01 T01760168  RH  095%=      5-min Rain = 0
KEN1 131109Z 09004KT 18/17 A3012 RMK A01 T01760169  RH  096%=      5-min Rain = 0
KEN1 131110Z 09003KT 18/17 A3012 RMK A01 T01750169  RH  096%=      5-min Rain = 0
KEN1 131111Z 09003KT 18/17 A3012 RMK A01 T01750169  RH  096%=      5-min Rain = 0
KEN1 131112Z 09003KT 17/17 A3012 RMK A01 T01740168  RH  096%=      5-min Rain = 0
KEN1 131113Z 08003KT 17/17 A3013 RMK A01 T01740168  RH  096%=      5-min Rain = 0
KEN1 131114Z 08003KT 17/17 A3013 RMK A01 T01740169  RH  096%=      5-min Rain = 0
KEN1 131115Z 09002KT 18/17 A3013 RMK A01 T01750169  RH  097%=      5-min Rain = 0
KEN1 131116Z 09002KT 18/17 A3013 RMK A01 T01750170  RH  097%=      5-min Rain = 0
KEN1 131117Z 09002KT 17/17 A3013 RMK A01 T01740169  RH  096%=      5-min Rain = 0
KEN1 131118Z 08002KT 17/17 A3013 RMK A01 T01730168  RH  096%=      5-min Rain = 0
KEN1 131119Z 04001KT 17/17 A3013 RMK A01 T01730167  RH  096%=      5-min Rain = 0
KEN1 131120Z 07002KT 17/17 A3013 RMK A01 T01730167  RH  096%=      5-min Rain = 0
KEN1 131121Z 06002KT 17/17 A3013 RMK A01 T01730167  RH  097%=      5-min Rain = 0
KEN1 131122Z 07002KT 17/17 A3013 RMK A01 T01730168  RH  097%=      5-min Rain = 0
KEN1 131123Z 06002KT 17/17 A3013 RMK A01 T01730168  RH  097%=      5-min Rain = 0
KEN1 131124Z 06003KT 17/17 A3013 RMK A01 T01730168  RH  097%=      5-min Rain = 0
KEN1 131125Z 06003KT 17/17 A3013 RMK A01 T01730169  RH  097%=      5-min Rain = 0
KEN1 131126Z 06003KT 17/17 A3013 RMK A01 T01730169  RH  097%=      5-min Rain = 0
KEN1 131127Z 06003KT 17/17 A3013 RMK A01 T01730168  RH  097%=      5-min Rain = 0
KEN1 131128Z 06003KT 17/17 A3013 RMK A01 T01720167  RH  097%=      5-min Rain = 0
KEN1 131129Z 05003KT 17/17 A3013 RMK A01 T01710166  RH  097%=      5-min Rain = 0
KEN1 131130Z 04003KT 17/17 A3013 RMK A01 T01700166  RH  097%=      5-min Rain = 0
KEN1 131131Z 03003KT 17/17 A3013 RMK A01 T01710167  RH  097%=      5-min Rain = 0
KEN1 131132Z 03003KT 17/17 A3014 RMK A01 T01710168  RH  098%=      5-min Rain = 0
KEN1 131133Z 02004KT 17/17 A3014 RMK A01 T01710168  RH  098%=      5-min Rain = 0
KEN1 131134Z 02004KT 17/17 A3014 RMK A01 T01710168  RH  098%=      5-min Rain = 0
KEN1 131135Z 02004KT 17/17 A3014 RMK A01 T01710168  RH  098%=      5-min Rain = 0
KEN1 131136Z 02004KT 17/17 A3014 RMK A01 T01710168  RH  098%=      5-min Rain = 0
KEN1 131137Z 02004KT 17/17 A3014 RMK A01 T01710167  RH  097%=      5-min Rain = 0
KEN1 131138Z 02004KT 17/17 A3014 RMK A01 T01710167  RH  097%=      5-min Rain = 0
KEN1 131139Z 02004KT 17/17 A3014 RMK A01 T01710167  RH  097%=      5-min Rain = 0
KEN1 131140Z 02004KT 17/17 A3014 RMK A01 T01710166  RH  097%=      5-min Rain = 0
KEN1 131141Z 01003KT 17/17 A3014 RMK A01 T01710166  RH  097%=      5-min Rain = 0
KEN1 131142Z 01003KT 17/17 A3014 RMK A01 T01710166  RH  097%=      5-min Rain = 0
KEN1 131143Z 01002KT 17/17 A3014 RMK A01 T01710166  RH  097%=      5-min Rain = 0
KEN1 131144Z 01002KT 17/17 A3014 RMK A01 T01710166  RH  097%=      5-min Rain = 0
KEN1 131145Z 01002KT 17/17 A3014 RMK A01 T01710167  RH  097%=      5-min Rain = 0
KEN1 131146Z 01001KT 17/17 A3014 RMK A01 T01710167  RH  097%=      5-min Rain = 0
KEN1 131147Z 01002KT 17/17 A3014 RMK A01 T01710167  RH  097%=      5-min Rain = 0
KEN1 131148Z 01001KT 17/17 A3014 RMK A01 T01710167  RH  097%=      5-min Rain = 0
KEN1 131149Z 02001KT 17/17 A3014 RMK A01 T01710167  RH  097%=      5-min Rain = 0
KEN1 131150Z 02001KT 17/17 A3014 RMK A01 T01710167  RH  097%=      5-min Rain = 0
KEN1 131151Z 02001KT 17/17 A3014 RMK A01 T01720168  RH  097%=      5-min Rain = 0
KEN1 131152Z 02001KT 17/17 A3014 RMK A01 T01720168  RH  097%=      5-min Rain = 0
KEN1 131153Z 03001KT 17/17 A3014 RMK A01 T01720167  RH  097%=      5-min Rain = 0
KEN1 131154Z 02001KT 17/17 A3014 RMK A01 T01720168  RH  097%=      5-min Rain = 0
KEN1 131155Z 02000KT 17/17 A3014 RMK A01 T01720168  RH  097%=      5-min Rain = 0
KEN1 131156Z 00000KT 17/17 A3014 RMK A01 T01720167  RH  097%=      5-min Rain = 0
KEN1 131157Z 00000KT 17/17 A3014 RMK A01 T01720168  RH  097%=      5-min Rain = 0
KEN1 131158Z 00001KT 17/17 A3014 RMK A01 T01720168  RH  097%=      5-min Rain = 0
KEN1 131159Z 01001KT 17/17 A3014 RMK A01 T01720168  RH  097%=      5-min Rain = 0
KEN1 131200Z 01000KT 17/17 A3014 RMK A01 T01730169  RH  097%=      5-min Rain = 0
KEN1 131201Z 03000KT 17/17 A3014 RMK A01 T01730169  RH  097%=      5-min Rain = 0
KEN1 131202Z 04001KT 17/17 A3014 RMK A01 T01740169  RH  097%=      5-min Rain = 0
KEN1 131203Z 04001KT 17/17 A3014 RMK A01 T01740169  RH  097%=      5-min Rain = 0
KEN1 131204Z 04001KT 17/17 A3014 RMK A01 T01740170  RH  097%=      5-min Rain = 0
KEN1 131205Z 05001KT 17/17 A3014 RMK A01 T01740170  RH  097%=      5-min Rain = 0
KEN1 131206Z 05001KT 17/17 A3014 RMK A01 T01740170  RH  097%=      5-min Rain = 0
KEN1 131207Z 05001KT 18/17 A3014 RMK A01 T01750170  RH  097%=      5-min Rain = 0
KEN1 131208Z 05001KT 18/17 A3014 RMK A01 T01750170  RH  097%=      5-min Rain = 0
KEN1 131209Z 05002KT 18/17 A3014 RMK A01 T01750170  RH  097%=      5-min Rain = 0
KEN1 131210Z 05002KT 18/17 A3014 RMK A01 T01750170  RH  097%=      5-min Rain = 0
KEN1 131211Z 05002KT 18/17 A3014 RMK A01 T01750170  RH  097%=      5-min Rain = 0
KEN1 131212Z 05002KT 18/17 A3014 RMK A01 T01750170  RH  097%=      5-min Rain = 0
KEN1 131213Z 05002KT 18/17 A3015 RMK A01 T01760171  RH  097%=      5-min Rain = 0
KEN1 131214Z 05002KT 18/17 A3015 RMK A01 T01760170  RH  097%=      5-min Rain = 0
KEN1 131215Z 05002KT 18/17 A3015 RMK A01 T01760171  RH  097%=      5-min Rain = 0
KEN1 131216Z 05002KT 18/17 A3015 RMK A01 T01760170  RH  097%=      5-min Rain = 0
KEN1 131217Z 05002KT 18/17 A3015 RMK A01 T01760170  RH  097%=      5-min Rain = 0
KEN1 131218Z 05002KT 18/17 A3015 RMK A01 T01760171  RH  097%=      5-min Rain = 0
KEN1 131219Z 05002KT 18/17 A3015 RMK A01 T01760171  RH  097%=      5-min Rain = 0
KEN1 131220Z 05002KT 18/17 A3015 RMK A01 T01770171  RH  097%=      5-min Rain = 0
KEN1 131221Z 05002KT 18/17 A3015 RMK A01 T01760171  RH  097%=      5-min Rain = 0
KEN1 131222Z 05003KT 18/17 A3015 RMK A01 T01760171  RH  097%=      5-min Rain = 0
KEN1 131223Z 05003KT 18/17 A3015 RMK A01 T01760171  RH  096%=      5-min Rain = 0
KEN1 131224Z 05003KT 18/17 A3015 RMK A01 T01760171  RH  096%=      5-min Rain = 0
KEN1 131225Z 05003KT 18/17 A3015 RMK A01 T01760171  RH  096%=      5-min Rain = 0
KEN1 131226Z 04003KT 18/17 A3015 RMK A01 T01760170  RH  096%=      5-min Rain = 0
KEN1 131227Z 04003KT 18/17 A3015 RMK A01 T01760170  RH  096%=      5-min Rain = 0
KEN1 131228Z 04003KT 18/17 A3015 RMK A01 T01760170  RH  096%=      5-min Rain = 0
KEN1 131229Z 04002KT 18/17 A3015 RMK A01 T01760169  RH  096%=      5-min Rain = 0
KEN1 131230Z 04002KT 18/17 A3015 RMK A01 T01760168  RH  096%=      5-min Rain = 0
KEN1 131231Z 05002KT 18/17 A3015 RMK A01 T01750168  RH  096%=      5-min Rain = 0
KEN1 131232Z 05002KT 18/17 A3015 RMK A01 T01750168  RH  096%=      5-min Rain = 0
KEN1 131233Z 05002KT 18/17 A3015 RMK A01 T01750168  RH  095%=      5-min Rain = 0
KEN1 131234Z 04002KT 18/17 A3015 RMK A01 T01750168  RH  095%=      5-min Rain = 0
KEN1 131235Z 03002KT 18/17 A3015 RMK A01 T01760168  RH  095%=      5-min Rain = 0
KEN1 131236Z 01002KT 18/17 A3015 RMK A01 T01750168  RH  095%=      5-min Rain = 0
KEN1 131237Z 35002KT 18/17 A3015 RMK A01 T01760169  RH  095%=      5-min Rain = 0
KEN1 131238Z 34002KT 18/17 A3015 RMK A01 T01760170  RH  096%=      5-min Rain = 0
KEN1 131239Z 33002KT 18/17 A3016 RMK A01 T01770171  RH  096%=      5-min Rain = 0
KEN1 131240Z 33002KT 18/17 A3015 RMK A01 T01780172  RH  096%=      5-min Rain = 0
KEN1 131241Z 32002KT 18/17 A3015 RMK A01 T01780172  RH  096%=      5-min Rain = 0
KEN1 131242Z 33002KT 18/17 A3015 RMK A01 T01780172  RH  096%=      5-min Rain = 0
KEN1 131243Z 34002KT 18/17 A3015 RMK A01 T01780172  RH  096%=      5-min Rain = 0
KEN1 131244Z 34002KT 18/17 A3015 RMK A01 T01790173  RH  096%=      5-min Rain = 0
KEN1 131245Z 34002KT 18/17 A3015 RMK A01 T01790173  RH  096%=      5-min Rain = 0
KEN1 131246Z 34002KT 18/17 A3015 RMK A01 T01800174  RH  096%=      5-min Rain = 0
KEN1 131247Z 35002KT 18/17 A3015 RMK A01 T01800174  RH  096%=      5-min Rain = 0
KEN1 131248Z 35001KT 18/18 A3015 RMK A01 T01810175  RH  096%=      5-min Rain = 0
KEN1 131249Z 34001KT 18/18 A3015 RMK A01 T01820175  RH  096%=      5-min Rain = 0
KEN1 131250Z 33001KT 18/18 A3015 RMK A01 T01830176  RH  096%=      5-min Rain = 0
KEN1 131251Z 32002KT 18/18 A3015 RMK A01 T01830176  RH  096%=      5-min Rain = 0
KEN1 131252Z 33002KT 18/18 A3015 RMK A01 T01830176  RH  095%=      5-min Rain = 0
KEN1 131253Z 32002KT 18/18 A3015 RMK A01 T01840176  RH  095%=      5-min Rain = 0
KEN1 131254Z 33002KT 18/18 A3016 RMK A01 T01840176  RH  095%=      5-min Rain = 0
KEN1 131255Z 33003KT 18/18 A3016 RMK A01 T01840176  RH  095%=      5-min Rain = 0
KEN1 131256Z 34002KT 18/18 A3016 RMK A01 T01840175  RH  094%=      5-min Rain = 0
KEN1 131257Z 34002KT 18/18 A3016 RMK A01 T01840175  RH  094%=      5-min Rain = 0
KEN1 131258Z 35002KT 18/18 A3016 RMK A01 T01840175  RH  094%=      5-min Rain = 0
KEN1 131259Z 36001KT 19/18 A3016 RMK A01 T01850175  RH  094%=      5-min Rain = 0
KEN1 131300Z 35002KT 19/18 A3016 RMK A01 T01850176  RH  094%=      5-min Rain = 0
KEN1 131301Z 35001KT 19/18 A3016 RMK A01 T01860176  RH  094%=      5-min Rain = 0
KEN1 131302Z 34001KT 19/18 A3016 RMK A01 T01860175  RH  093%=      5-min Rain = 0
KEN1 131303Z 33001KT 19/18 A3016 RMK A01 T01870176  RH  093%=      5-min Rain = 0
KEN1 131304Z 34001KT 19/18 A3016 RMK A01 T01880178  RH  094%=      5-min Rain = 0
KEN1 131305Z 33001KT 19/18 A3016 RMK A01 T01880178  RH  094%=      5-min Rain = 0
KEN1 131306Z 33001KT 19/18 A3016 RMK A01 T01880177  RH  093%=      5-min Rain = 0
KEN1 131307Z 32001KT 19/18 A3016 RMK A01 T01880176  RH  092%=      5-min Rain = 0
KEN1 131308Z 32001KT 19/18 A3016 RMK A01 T01880175  RH  092%=      5-min Rain = 0
KEN1 131309Z 31001KT 19/18 A3016 RMK A01 T01890176  RH  092%=      5-min Rain = 0
KEN1 131310Z 30001KT 19/18 A3016 RMK A01 T01890177  RH  093%=      5-min Rain = 0
KEN1 131311Z 30001KT 19/18 A3016 RMK A01 T01900177  RH  093%=      5-min Rain = 0
KEN1 131312Z 28001KT 19/18 A3016 RMK A01 T01900177  RH  092%=      5-min Rain = 0
KEN1 131313Z 30001KT 19/18 A3016 RMK A01 T01900176  RH  092%=      5-min Rain = 0
KEN1 131314Z 30001KT 19/18 A3016 RMK A01 T01900177  RH  092%=      5-min Rain = 0
KEN1 131315Z 29001KT 19/18 A3016 RMK A01 T01910176  RH  091%=      5-min Rain = 0
KEN1 131316Z 31001KT 19/18 A3016 RMK A01 T01910177  RH  092%=      5-min Rain = 0
KEN1 131317Z 32000KT 19/18 A3016 RMK A01 T01910176  RH  091%=      5-min Rain = 0
KEN1 131318Z 33000KT 19/18 A3016 RMK A01 T01920176  RH  091%=      5-min Rain = 0
KEN1 131319Z 32000KT 19/18 A3016 RMK A01 T01930176  RH  090%=      5-min Rain = 0
KEN1 131320Z 00000KT 19/18 A3016 RMK A01 T01940177  RH  090%=      5-min Rain = 0
KEN1 131321Z 00000KT 20/18 A3016 RMK A01 T01950176  RH  089%=      5-min Rain = 0
KEN1 131322Z 33001KT 20/18 A3016 RMK A01 T01950176  RH  089%=      5-min Rain = 0
KEN1 131323Z 35001KT 20/18 A3016 RMK A01 T01960178  RH  089%=      5-min Rain = 0
KEN1 131324Z 33001KT 20/18 A3016 RMK A01 T01950177  RH  089%=      5-min Rain = 0
KEN1 131325Z 32001KT 20/18 A3016 RMK A01 T01960177  RH  089%=      5-min Rain = 0
KEN1 131326Z 01001KT 20/18 A3016 RMK A01 T01960179  RH  090%=      5-min Rain = 0
KEN1 131327Z 01001KT 20/18 A3016 RMK A01 T01970178  RH  089%=      5-min Rain = 0
KEN1 131328Z 02000KT 20/18 A3016 RMK A01 T01970178  RH  088%=      5-min Rain = 0
KEN1 131329Z 02000KT 20/18 A3016 RMK A01 T01980178  RH  088%=      5-min Rain = 0
KEN1 131330Z 00000KT 20/18 A3016 RMK A01 T02000179  RH  088%=      5-min Rain = 0
KEN1 131331Z 28000KT 20/18 A3016 RMK A01 T02010180  RH  087%=      5-min Rain = 0
KEN1 131332Z 31000KT 20/18 A3016 RMK A01 T02010179  RH  087%=      5-min Rain = 0
KEN1 131333Z 34001KT 20/18 A3016 RMK A01 T02010179  RH  087%=      5-min Rain = 0
KEN1 131334Z 35002KT 20/18 A3016 RMK A01 T02010178  RH  087%=      5-min Rain = 0
KEN1 131335Z 01001KT 20/18 A3016 RMK A01 T02000176  RH  086%=      5-min Rain = 0
KEN1 131336Z 04001KT 20/18 A3016 RMK A01 T02000177  RH  087%=      5-min Rain = 0
KEN1 131337Z 36002KT 20/18 A3016 RMK A01 T02000177  RH  087%=      5-min Rain = 0
KEN1 131338Z 36002KT 20/18 A3016 RMK A01 T02010179  RH  087%=      5-min Rain = 0
KEN1 131339Z 01001KT 20/18 A3016 RMK A01 T02010178  RH  087%=      5-min Rain = 0
KEN1 131340Z 35001KT 20/18 A3016 RMK A01 T02010179  RH  087%=      5-min Rain = 0
KEN1 131341Z 35001KT 20/18 A3016 RMK A01 T02010179  RH  087%=      5-min Rain = 0
KEN1 131342Z 01001KT 20/18 A3016 RMK A01 T02010179  RH  087%=      5-min Rain = 0
KEN1 131343Z 02001KT 20/18 A3016 RMK A01 T02010180  RH  088%=      5-min Rain = 0
KEN1 131344Z 02001KT 20/18 A3016 RMK A01 T02020180  RH  087%=      5-min Rain = 0
KEN1 131345Z 00001KT 20/18 A3016 RMK A01 T02030181  RH  087%=      5-min Rain = 0
KEN1 131346Z 02002KT 20/18 A3016 RMK A01 T02040182  RH  087%=      5-min Rain = 0
KEN1 131347Z 03002KT 20/18 A3016 RMK A01 T02040182  RH  087%=      5-min Rain = 0
KEN1 131348Z 04002KT 20/18 A3016 RMK A01 T02040181  RH  087%=      5-min Rain = 0
KEN1 131349Z 04002KT 20/18 A3016 RMK A01 T02040182  RH  087%=      5-min Rain = 0
KEN1 131350Z 00002KT 21/18 A3016 RMK A01 T02050183  RH  087%=      5-min Rain = 0
KEN1 131351Z 01001KT 21/18 A3016 RMK A01 T02050182  RH  087%=      5-min Rain = 0
KEN1 131352Z 03001KT 21/18 A3016 RMK A01 T02050182  RH  086%=      5-min Rain = 0
KEN1 131353Z 03001KT 21/18 A3016 RMK A01 T02060181  RH  086%=      5-min Rain = 0
KEN1 131354Z 05001KT 21/18 A3016 RMK A01 T02060183  RH  086%=      5-min Rain = 0
KEN1 131355Z 04002KT 21/19 A3016 RMK A01 T02080185  RH  087%=      5-min Rain = 0
KEN1 131356Z 04001KT 21/18 A3017 RMK A01 T02080183  RH  086%=      5-min Rain = 0
KEN1 131357Z 04002KT 21/18 A3017 RMK A01 T02080182  RH  085%=      5-min Rain = 0
KEN1 131358Z 02002KT 21/18 A3017 RMK A01 T02080183  RH  086%=      5-min Rain = 0
KEN1 131359Z 02002KT 21/18 A3017 RMK A01 T02070183  RH  086%=      5-min Rain = 0
KEN1 131400Z 03002KT 21/18 A3017 RMK A01 T02060182  RH  086%=      5-min Rain = 0
KEN1 131401Z 03002KT 21/19 A3017 RMK A01 T02060185  RH  087%=      5-min Rain = 0
KEN1 131402Z 03002KT 21/19 A3017 RMK A01 T02070186  RH  088%=      5-min Rain = 0
KEN1 131403Z 04002KT 21/18 A3017 RMK A01 T02070184  RH  086%=      5-min Rain = 0
KEN1 131404Z 06001KT 21/18 A3017 RMK A01 T02070184  RH  086%=      5-min Rain = 0
KEN1 131405Z 06001KT 21/18 A3017 RMK A01 T02080183  RH  086%=      5-min Rain = 0
KEN1 131406Z 07001KT 21/19 A3017 RMK A01 T02100185  RH  086%=      5-min Rain = 0
KEN1 131407Z 07001KT 21/18 A3017 RMK A01 T02110184  RH  085%=      5-min Rain = 0
KEN1 131408Z 06001KT 21/19 A3017 RMK A01 T02110186  RH  085%=      5-min Rain = 0
KEN1 131409Z 06000KT 21/18 A3017 RMK A01 T02120184  RH  084%=      5-min Rain = 0
KEN1 131410Z 08000KT 21/19 A3017 RMK A01 T02120185  RH  084%=      5-min Rain = 0
KEN1 131411Z 06000KT 21/19 A3017 RMK A01 T02140185  RH  084%=      5-min Rain = 0
KEN1 131412Z 05001KT 22/19 A3017 RMK A01 T02160186  RH  083%=      5-min Rain = 0
KEN1 131413Z 02001KT 22/19 A3017 RMK A01 T02170186  RH  083%=      5-min Rain = 0
KEN1 131414Z 01001KT 22/19 A3017 RMK A01 T02170185  RH  082%=      5-min Rain = 0
KEN1 131415Z 02001KT 22/19 A3017 RMK A01 T02150185  RH  083%=      5-min Rain = 0
KEN1 131416Z 01001KT 22/19 A3017 RMK A01 T02150187  RH  084%=      5-min Rain = 0
KEN1 131417Z 32000KT 22/19 A3017 RMK A01 T02150186  RH  083%=      5-min Rain = 0
KEN1 131418Z 30000KT 22/19 A3017 RMK A01 T02150185  RH  083%=      5-min Rain = 0
KEN1 131419Z 35000KT 22/19 A3017 RMK A01 T02160187  RH  083%=      5-min Rain = 0
KEN1 131420Z 31000KT 22/19 A3017 RMK A01 T02170189  RH  084%=      5-min Rain = 0
KEN1 131421Z 03001KT 22/19 A3017 RMK A01 T02180191  RH  085%=      5-min Rain = 0
KEN1 131422Z 02001KT 22/19 A3017 RMK A01 T02180189  RH  083%=      5-min Rain = 0
KEN1 131423Z 01001KT 22/19 A3017 RMK A01 T02170187  RH  083%=      5-min Rain = 0
KEN1 131424Z 04001KT 22/19 A3017 RMK A01 T02160187  RH  083%=      5-min Rain = 0
KEN1 131425Z 10001KT 22/19 A3017 RMK A01 T02160188  RH  084%=      5-min Rain = 0
KEN1 131426Z 06001KT 22/19 A3017 RMK A01 T02160189  RH  084%=      5-min Rain = 0
KEN1 131427Z 05002KT 22/19 A3017 RMK A01 T02170191  RH  085%=      5-min Rain = 0
KEN1 131428Z 06002KT 22/19 A3017 RMK A01 T02190189  RH  083%=      5-min Rain = 0
KEN1 131429Z 06002KT 22/19 A3017 RMK A01 T02190187  RH  082%=      5-min Rain = 0
KEN1 131430Z 04002KT 22/19 A3017 RMK A01 T02190187  RH  082%=      5-min Rain = 0
KEN1 131431Z 04001KT 22/19 A3017 RMK A01 T02190187  RH  082%=      5-min Rain = 0
KEN1 131432Z 08002KT 22/19 A3017 RMK A01 T02190189  RH  083%=      5-min Rain = 0
KEN1 131433Z 08002KT 22/19 A3017 RMK A01 T02190189  RH  083%=      5-min Rain = 0
KEN1 131434Z 06002KT 22/19 A3017 RMK A01 T02200189  RH  083%=      5-min Rain = 0
KEN1 131435Z 05001KT 22/19 A3017 RMK A01 T02190186  RH  081%=      5-min Rain = 0
KEN1 131436Z 03001KT 22/19 A3017 RMK A01 T02200188  RH  082%=      5-min Rain = 0
KEN1 131437Z 05001KT 22/19 A3017 RMK A01 T02210191  RH  083%=      5-min Rain = 0
KEN1 131438Z 00000KT 22/19 A3017 RMK A01 T02220190  RH  082%=      5-min Rain = 0
KEN1 131439Z 27000KT 22/19 A3017 RMK A01 T02230189  RH  081%=      5-min Rain = 0
KEN1 131440Z 05000KT 22/19 A3017 RMK A01 T02230190  RH  082%=      5-min Rain = 0
KEN1 131441Z 05000KT 22/19 A3017 RMK A01 T02240191  RH  082%=      5-min Rain = 0
KEN1 131442Z 03000KT 23/19 A3017 RMK A01 T02250191  RH  081%=      5-min Rain = 0
KEN1 131443Z 04000KT 23/19 A3017 RMK A01 T02270192  RH  081%=      5-min Rain = 0
KEN1 131444Z 09000KT 23/20 A3017 RMK A01 T02290195  RH  081%=      5-min Rain = 0
KEN1 131445Z 08001KT 23/19 A3017 RMK A01 T02300190  RH  078%=      5-min Rain = 0
KEN1 131446Z 08002KT 23/19 A3017 RMK A01 T02310192  RH  079%=      5-min Rain = 0
KEN1 131447Z 07002KT 23/19 A3017 RMK A01 T02310192  RH  079%=      5-min Rain = 0
KEN1 131448Z 06001KT 23/19 A3017 RMK A01 T02310191  RH  078%=      5-min Rain = 0
KEN1 131449Z 07001KT 23/19 A3017 RMK A01 T02290190  RH  079%=      5-min Rain = 0
KEN1 131450Z 12000KT 23/19 A3017 RMK A01 T02290189  RH  078%=      5-min Rain = 0
KEN1 131451Z 08001KT 23/19 A3017 RMK A01 T02300190  RH  078%=      5-min Rain = 0
KEN1 131452Z 04001KT 23/19 A3017 RMK A01 T02310190  RH  078%=      5-min Rain = 0
KEN1 131453Z 04001KT 23/19 A3017 RMK A01 T02320187  RH  076%=      5-min Rain = 0
KEN1 131454Z 04001KT 23/19 A3017 RMK A01 T02320186  RH  075%=      5-min Rain = 0
KEN1 131455Z 34000KT 23/19 A3017 RMK A01 T02340187  RH  075%=      5-min Rain = 0
KEN1 131456Z 31002KT 23/19 A3017 RMK A01 T02340189  RH  075%=      5-min Rain = 0
KEN1 131457Z 31002KT 23/19 A3017 RMK A01 T02340188  RH  075%=      5-min Rain = 0
KEN1 131458Z 29002KT 23/18 A3017 RMK A01 T02320182  RH  073%=      5-min Rain = 0
KEN1 131459Z 28002KT 23/18 A3017 RMK A01 T02300179  RH  073%=      5-min Rain = 0
KEN1 131500Z 26002KT 23/18 A3017 RMK A01 T02280179  RH  074%=      5-min Rain = 0
KEN1 131501Z 28002KT 23/18 A3017 RMK A01 T02280181  RH  075%=      5-min Rain = 0
KEN1 131502Z 30002KT 23/18 A3017 RMK A01 T02280184  RH  076%=      5-min Rain = 0
KEN1 131503Z 29002KT 23/19 A3017 RMK A01 T02290185  RH  076%=      5-min Rain = 0
KEN1 131504Z 29001KT 23/19 A3017 RMK A01 T02300185  RH  076%=      5-min Rain = 0
KEN1 131505Z 26002KT 23/19 A3017 RMK A01 T02310187  RH  076%=      5-min Rain = 0
KEN1 131506Z 26002KT 23/18 A3017 RMK A01 T02300184  RH  075%=      5-min Rain = 0
KEN1 131507Z 27002KT 23/18 A3017 RMK A01 T02290184  RH  076%=      5-min Rain = 0
KEN1 131508Z 29002KT 23/19 A3017 RMK A01 T02290186  RH  077%=      5-min Rain = 0
KEN1 131509Z 28002KT 23/18 A3017 RMK A01 T02290184  RH  076%=      5-min Rain = 0
KEN1 131510Z 22001KT 23/19 A3017 RMK A01 T02300188  RH  077%=      5-min Rain = 0
KEN1 131511Z 17000KT 23/18 A3017 RMK A01 T02300182  RH  074%=      5-min Rain = 0
KEN1 131512Z 20000KT 23/18 A3017 RMK A01 T02310184  RH  075%=      5-min Rain = 0
KEN1 131513Z 21002KT 23/19 A3017 RMK A01 T02330186  RH  075%=      5-min Rain = 0
KEN1 131514Z 20002KT 23/19 A3017 RMK A01 T02340186  RH  074%=      5-min Rain = 0
KEN1 131515Z 18001KT 23/19 A3017 RMK A01 T02330186  RH  075%=      5-min Rain = 0
KEN1 131516Z 20000KT 23/19 A3017 RMK A01 T02330185  RH  074%=      5-min Rain = 0
KEN1 131517Z 21001KT 23/18 A3017 RMK A01 T02330184  RH  074%=      5-min Rain = 0
KEN1 131518Z 22001KT 23/19 A3017 RMK A01 T02330186  RH  075%=      5-min Rain = 0
KEN1 131519Z 23002KT 23/19 A3017 RMK A01 T02330186  RH  075%=      5-min Rain = 0
KEN1 131520Z 24001KT 23/19 A3017 RMK A01 T02340186  RH  075%=      5-min Rain = 0
KEN1 131521Z 25000KT 23/19 A3017 RMK A01 T02340185  RH  074%=      5-min Rain = 0
KEN1 131522Z 02000KT 23/19 A3017 RMK A01 T02340186  RH  074%=      5-min Rain = 0
KEN1 131523Z 02000KT 24/19 A3017 RMK A01 T02350185  RH  074%=      5-min Rain = 0
KEN1 131524Z 20000KT 24/19 A3017 RMK A01 T02360186  RH  074%=      5-min Rain = 0
KEN1 131525Z 20002KT 24/19 A3017 RMK A01 T02370187  RH  073%=      5-min Rain = 0
KEN1 131526Z 23002KT 24/19 A3017 RMK A01 T02370187  RH  074%=      5-min Rain = 0
KEN1 131527Z 24002KT 24/19 A3017 RMK A01 T02370189  RH  074%=      5-min Rain = 0
KEN1 131528Z 27002KT 24/19 A3017 RMK A01 T02360186  RH  073%=      5-min Rain = 0
KEN1 131529Z 30001KT 24/19 A3017 RMK A01 T02360188  RH  074%=      5-min Rain = 0
KEN1 131530Z 32001KT 24/19 A3017 RMK A01 T02360187  RH  074%=      5-min Rain = 0
KEN1 131531Z 34002KT 24/19 A3017 RMK A01 T02360188  RH  075%=      5-min Rain = 0
KEN1 131532Z 34003KT 24/19 A3017 RMK A01 T02370189  RH  074%=      5-min Rain = 0
KEN1 131533Z 34002KT 24/19 A3017 RMK A01 T02380189  RH  074%=      5-min Rain = 0
KEN1 131534Z 32001KT 24/19 A3017 RMK A01 T02380187  RH  073%=      5-min Rain = 0
KEN1 131535Z 32001KT 24/19 A3017 RMK A01 T02390187  RH  073%=      5-min Rain = 0
KEN1 131536Z 32002KT 24/19 A3017 RMK A01 T02390187  RH  073%=      5-min Rain = 0
KEN1 131537Z 32002KT 24/19 A3017 RMK A01 T02390188  RH  073%=      5-min Rain = 0
KEN1 131538Z 34002KT 24/19 A3017 RMK A01 T02400190  RH  074%=      5-min Rain = 0
KEN1 131539Z 02002KT 24/19 A3017 RMK A01 T02400190  RH  074%=      5-min Rain = 0
KEN1 131540Z 04003KT 24/19 A3017 RMK A01 T02420190  RH  073%=      5-min Rain = 0
KEN1 131541Z 05003KT 24/19 A3017 RMK A01 T02420189  RH  072%=      5-min Rain = 0
KEN1 131542Z 05003KT 24/19 A3017 RMK A01 T02430188  RH  072%=      5-min Rain = 0
KEN1 131543Z 04001KT 24/19 A3017 RMK A01 T02420193  RH  074%=      5-min Rain = 0
KEN1 131544Z 34002KT 24/19 A3017 RMK A01 T02430188  RH  071%=      5-min Rain = 0
KEN1 131545Z 31002KT 24/19 A3017 RMK A01 T02420187  RH  071%=      5-min Rain = 0
KEN1 131546Z 34002KT 24/19 A3017 RMK A01 T02410187  RH  072%=      5-min Rain = 0
KEN1 131547Z 33002KT 24/19 A3017 RMK A01 T02410188  RH  072%=      5-min Rain = 0
KEN1 131548Z 32002KT 24/19 A3017 RMK A01 T02410188  RH  072%=      5-min Rain = 0
KEN1 131549Z 32002KT 24/19 A3017 RMK A01 T02410189  RH  072%=      5-min Rain = 0
KEN1 131550Z 35002KT 24/19 A3017 RMK A01 T02430189  RH  072%=      5-min Rain = 0
KEN1 131551Z 01002KT 24/19 A3017 RMK A01 T02430188  RH  071%=      5-min Rain = 0
KEN1 131552Z 03001KT 24/19 A3017 RMK A01 T02440189  RH  072%=      5-min Rain = 0
KEN1 131553Z 25000KT 25/19 A3017 RMK A01 T02450188  RH  071%=      5-min Rain = 0
KEN1 131554Z 25002KT 25/19 A3017 RMK A01 T02450187  RH  070%=      5-min Rain = 0
KEN1 131555Z 27001KT 24/19 A3017 RMK A01 T02440188  RH  071%=      5-min Rain = 0
KEN1 131556Z 25001KT 24/19 A3017 RMK A01 T02430187  RH  071%=      5-min Rain = 0
KEN1 131557Z 26001KT 24/19 A3017 RMK A01 T02430188  RH  071%=      5-min Rain = 0
KEN1 131558Z 24001KT 24/19 A3017 RMK A01 T02440188  RH  071%=      5-min Rain = 0
KEN1 131559Z 28001KT 24/19 A3017 RMK A01 T02440190  RH  072%=      5-min Rain = 0
KEN1 131600Z 31003KT 25/19 A3017 RMK A01 T02460193  RH  072%=      5-min Rain = 0
KEN1 131601Z 30004KT 25/19 A3017 RMK A01 T02480190  RH  070%=      5-min Rain = 0
KEN1 131602Z 33002KT 25/19 A3017 RMK A01 T02470190  RH  071%=      5-min Rain = 0
KEN1 131603Z 30002KT 25/19 A3017 RMK A01 T02470190  RH  071%=      5-min Rain = 0
KEN1 131604Z 31003KT 25/19 A3017 RMK A01 T02470189  RH  070%=      5-min Rain = 0
KEN1 131605Z 32003KT 25/19 A3017 RMK A01 T02470189  RH  070%=      5-min Rain = 0
KEN1 131606Z 31002KT 25/19 A3017 RMK A01 T02480187  RH  069%=      5-min Rain = 0
KEN1 131607Z 32002KT 25/19 A3017 RMK A01 T02470187  RH  069%=      5-min Rain = 0
KEN1 131608Z 32002KT 25/19 A3017 RMK A01 T02480188  RH  069%=      5-min Rain = 0
KEN1 131609Z 30002KT 25/19 A3017 RMK A01 T02500191  RH  070%=      5-min Rain = 0
KEN1 131610Z 31002KT 25/19 A3017 RMK A01 T02510188  RH  068%=      5-min Rain = 0
KEN1 131611Z 30002KT 25/19 A3017 RMK A01 T02510188  RH  068%=      5-min Rain = 0
KEN1 131612Z 31002KT 25/19 A3017 RMK A01 T02510188  RH  068%=      5-min Rain = 0
KEN1 131613Z 34001KT 25/19 A3017 RMK A01 T02510189  RH  068%=      5-min Rain = 0
KEN1 131614Z 33000KT 25/19 A3017 RMK A01 T02510189  RH  069%=      5-min Rain = 0
KEN1 131615Z 01000KT 25/19 A3017 RMK A01 T02530190  RH  068%=      5-min Rain = 0
KEN1 131616Z 12000KT 26/19 A3017 RMK A01 T02560194  RH  068%=      5-min Rain = 0
KEN1 131617Z 14003KT 26/20 A3017 RMK A01 T02600195  RH  067%=      5-min Rain = 0
KEN1 131618Z 15001KT 26/19 A3017 RMK A01 T02610190  RH  065%=      5-min Rain = 0
KEN1 131619Z 13002KT 26/19 A3017 RMK A01 T02600193  RH  066%=      5-min Rain = 0
KEN1 131620Z 15002KT 26/19 A3017 RMK A01 T02600190  RH  065%=      5-min Rain = 0
KEN1 131621Z 15002KT 26/19 A3017 RMK A01 T02590192  RH  067%=      5-min Rain = 0
KEN1 131622Z 13003KT 26/19 A3017 RMK A01 T02590193  RH  067%=      5-min Rain = 0
KEN1 131623Z 11002KT 26/19 A3017 RMK A01 T02600193  RH  066%=      5-min Rain = 0
KEN1 131624Z 14002KT 26/19 A3017 RMK A01 T02610192  RH  066%=      5-min Rain = 0
KEN1 131625Z 17001KT 26/19 A3017 RMK A01 T02600189  RH  065%=      5-min Rain = 0
KEN1 131626Z 19002KT 26/19 A3017 RMK A01 T02590187  RH  065%=      5-min Rain = 0
KEN1 131627Z 21002KT 26/19 A3017 RMK A01 T02570185  RH  064%=      5-min Rain = 0
KEN1 131628Z 23003KT 26/19 A3017 RMK A01 T02570188  RH  066%=      5-min Rain = 0
KEN1 131629Z 20004KT 26/19 A3017 RMK A01 T02570187  RH  065%=      5-min Rain = 0
KEN1 131630Z 18003KT 26/19 A3017 RMK A01 T02570187  RH  065%=      5-min Rain = 0
KEN1 131631Z 19003KT 26/19 A3017 RMK A01 T02570186  RH  065%=      5-min Rain = 0
KEN1 131632Z 20001KT 26/19 A3017 RMK A01 T02570188  RH  066%=      5-min Rain = 0
KEN1 131633Z 18001KT 26/19 A3017 RMK A01 T02570188  RH  065%=      5-min Rain = 0
KEN1 131634Z 18001KT 26/19 A3018 RMK A01 T02590188  RH  065%=      5-min Rain = 0
KEN1 131635Z 13001KT 26/19 A3018 RMK A01 T02600188  RH  065%=      5-min Rain = 0
KEN1 131636Z 14001KT 26/19 A3018 RMK A01 T02610187  RH  064%=      5-min Rain = 0
KEN1 131637Z 13001KT 26/19 A3018 RMK A01 T02620188  RH  064%=      5-min Rain = 0
KEN1 131638Z 15000KT 26/19 A3018 RMK A01 T02630189  RH  064%=      5-min Rain = 0
KEN1 131639Z 14002KT 26/19 A3018 RMK A01 T02630189  RH  064%=      5-min Rain = 0
KEN1 131640Z 13004KT 26/19 A3018 RMK A01 T02630190  RH  064%=      5-min Rain = 0
KEN1 131641Z 15003KT 26/19 A3018 RMK A01 T02630190  RH  064%=      5-min Rain = 0
KEN1 131642Z 15003KT 26/19 A3018 RMK A01 T02640189  RH  063%=      5-min Rain = 0
KEN1 131643Z 16003KT 27/19 A3018 RMK A01 T02650189  RH  063%=      5-min Rain = 0
KEN1 131644Z 17003KT 26/19 A3018 RMK A01 T02640189  RH  063%=      5-min Rain = 0
KEN1 131645Z 14002KT 27/19 A3018 RMK A01 T02650187  RH  062%=      5-min Rain = 0
KEN1 131646Z 11001KT 27/19 A3018 RMK A01 T02650189  RH  063%=      5-min Rain = 0
KEN1 131647Z 07000KT 27/19 A3018 RMK A01 T02650188  RH  063%=      5-min Rain = 0
KEN1 131648Z 05001KT 27/19 A3018 RMK A01 T02660187  RH  062%=      5-min Rain = 0
KEN1 131649Z 02002KT 26/19 A3018 RMK A01 T02640186  RH  062%=      5-min Rain = 0
KEN1 131650Z 04001KT 26/19 A3018 RMK A01 T02630190  RH  064%=      5-min Rain = 0
KEN1 131651Z 33001KT 26/19 A3018 RMK A01 T02640188  RH  063%=      5-min Rain = 0
KEN1 131652Z 33001KT 26/19 A3018 RMK A01 T02640189  RH  063%=      5-min Rain = 0
KEN1 131653Z 03001KT 27/19 A3018 RMK A01 T02650190  RH  063%=      5-min Rain = 0
KEN1 131654Z 05003KT 27/18 A3018 RMK A01 T02670184  RH  061%=      5-min Rain = 0
KEN1 131655Z 04004KT 27/19 A3018 RMK A01 T02690185  RH  060%=      5-min Rain = 0
KEN1 131656Z 04004KT 27/19 A3018 RMK A01 T02710185  RH  059%=      5-min Rain = 0
KEN1 131657Z 02003KT 27/19 A3018 RMK A01 T02710186  RH  060%=      5-min Rain = 0
KEN1 131658Z 01004KT 27/19 A3018 RMK A01 T02720189  RH  060%=      5-min Rain = 0
KEN1 131659Z 00002KT 27/18 A3018 RMK A01 T02720182  RH  058%=      5-min Rain = 0
KEN1 131700Z 00002KT 27/18 A3018 RMK A01 T02700183  RH  059%=      5-min Rain = 0
KEN1 131701Z 36002KT 27/18 A3018 RMK A01 T02700184  RH  059%=      5-min Rain = 0
KEN1 131702Z 35005KT 27/19 A3018 RMK A01 T02700185  RH  060%=      5-min Rain = 0
KEN1 131703Z 34003KT 27/18 A3018 RMK A01 T02690181  RH  059%=      5-min Rain = 0
KEN1 131704Z 32002KT 27/18 A3018 RMK A01 T02670184  RH  060%=      5-min Rain = 0
KEN1 131705Z 36002KT 27/18 A3018 RMK A01 T02670184  RH  060%=      5-min Rain = 0
KEN1 131706Z 00003KT 27/19 A3018 RMK A01 T02690187  RH  061%=      5-min Rain = 0
KEN1 131707Z 03004KT 27/19 A3018 RMK A01 T02720191  RH  061%=      5-min Rain = 0
KEN1 131708Z 05005KT 28/19 A3018 RMK A01 T02750188  RH  059%=      5-min Rain = 0
KEN1 131709Z 09003KT 28/18 A3018 RMK A01 T02760184  RH  057%=      5-min Rain = 0
KEN1 131710Z 11001KT 28/19 A3018 RMK A01 T02760186  RH  058%=      5-min Rain = 0
KEN1 131711Z 11002KT 28/18 A3018 RMK A01 T02760182  RH  056%=      5-min Rain = 0
KEN1 131712Z 07005KT 28/19 A3018 RMK A01 T02770187  RH  058%=      5-min Rain = 0
KEN1 131713Z 08005KT 28/19 A3018 RMK A01 T02780186  RH  057%=      5-min Rain = 0
KEN1 131714Z 06006KT 28/19 A3018 RMK A01 T02780185  RH  057%=      5-min Rain = 0
KEN1 131715Z 06005KT 28/19 A3018 RMK A01 T02780185  RH  057%=      5-min Rain = 0
KEN1 131716Z 06004KT 28/18 A3018 RMK A01 T02770179  RH  055%=      5-min Rain = 0
KEN1 131717Z 06005KT 28/18 A3018 RMK A01 T02750177  RH  055%=      5-min Rain = 0
KEN1 131718Z 06003KT 27/18 A3018 RMK A01 T02740179  RH  056%=      5-min Rain = 0
KEN1 131719Z 05007KT 28/19 A3018 RMK A01 T02750186  RH  058%=      5-min Rain = 0
KEN1 131720Z 07006KT 28/19 A3018 RMK A01 T02780188  RH  058%=      5-min Rain = 0
KEN1 131721Z 08006KT 28/19 A3018 RMK A01 T02780188  RH  058%=      5-min Rain = 0
KEN1 131722Z 08004KT 28/19 A3018 RMK A01 T02790188  RH  058%=      5-min Rain = 0
KEN1 131723Z 09003KT 28/19 A3018 RMK A01 T02800187  RH  057%=      5-min Rain = 0
KEN1 131724Z 05004KT 28/19 A3018 RMK A01 T02810190  RH  057%=      5-min Rain = 0
KEN1 131725Z 05007KT 28/19 A3018 RMK A01 T02840188  RH  056%=      5-min Rain = 0
KEN1 131726Z 07006KT 29/18 A3018 RMK A01 T02860182  RH  053%=      5-min Rain = 0
KEN1 131727Z 03006KT 29/19 A3018 RMK A01 T02860185  RH  055%=      5-min Rain = 0
KEN1 131728Z 04005KT 28/18 A3018 RMK A01 T02840178  RH  052%=      5-min Rain = 0
KEN1 131729Z 04005KT 28/18 A3018 RMK A01 T02810177  RH  053%=      5-min Rain = 0
KEN1 131730Z 02005KT 28/18 A3018 RMK A01 T02790176  RH  053%=      5-min Rain = 0
KEN1 131731Z 02003KT 28/18 A3018 RMK A01 T02770177  RH  054%=      5-min Rain = 0
KEN1 131732Z 02003KT 28/18 A3018 RMK A01 T02770178  RH  055%=      5-min Rain = 0
KEN1 131733Z 02002KT 28/18 A3018 RMK A01 T02790177  RH  054%=      5-min Rain = 0
KEN1 131734Z 08001KT 28/18 A3018 RMK A01 T02800180  RH  054%=      5-min Rain = 0
KEN1 131735Z 33001KT 28/18 A3018 RMK A01 T02820183  RH  055%=      5-min Rain = 0
KEN1 131736Z 34000KT 28/19 A3018 RMK A01 T02830186  RH  055%=      5-min Rain = 0
KEN1 131737Z 07002KT 29/19 A3018 RMK A01 T02850186  RH  055%=      5-min Rain = 0
KEN1 131738Z 06004KT 29/18 A3018 RMK A01 T02870183  RH  053%=      5-min Rain = 0
KEN1 131739Z 06003KT 29/18 A3018 RMK A01 T02870181  RH  053%=      5-min Rain = 0
KEN1 131740Z 04005KT 29/19 A3018 RMK A01 T02870188  RH  055%=      5-min Rain = 0
KEN1 131741Z 05007KT 29/19 A3018 RMK A01 T02880185  RH  054%=      5-min Rain = 0
KEN1 131742Z 06005KT 29/18 A3018 RMK A01 T02870184  RH  053%=      5-min Rain = 0
KEN1 131743Z 07002KT 29/18 A3018 RMK A01 T02860183  RH  054%=      5-min Rain = 0
KEN1 131744Z 04006KT 29/19 A3018 RMK A01 T02850187  RH  055%=      5-min Rain = 0
KEN1 131745Z 04005KT 29/19 A3018 RMK A01 T02870185  RH  054%=      5-min Rain = 0
KEN1 131746Z 00002KT 29/18 A3018 RMK A01 T02860182  RH  053%=      5-min Rain = 0
KEN1 131747Z 00002KT 28/18 A3018 RMK A01 T02840180  RH  053%=      5-min Rain = 0
KEN1 131748Z 05002KT 28/18 A3018 RMK A01 T02820177  RH  053%=      5-min Rain = 0
KEN1 131749Z 07006KT 28/19 A3018 RMK A01 T02810185  RH  056%=      5-min Rain = 0
KEN1 131750Z 08007KT 28/19 A3018 RMK A01 T02830185  RH  055%=      5-min Rain = 0
KEN1 131751Z 07005KT 29/18 A3018 RMK A01 T02850184  RH  054%=      5-min Rain = 0
KEN1 131752Z 09005KT 29/19 A3018 RMK A01 T02850186  RH  055%=      5-min Rain = 0
KEN1 131753Z 09005KT 29/19 A3018 RMK A01 T02850185  RH  055%=      5-min Rain = 0
KEN1 131754Z 08004KT 28/19 A3018 RMK A01 T02840189  RH  056%=      5-min Rain = 0
KEN1 131755Z 03001KT 29/18 A3018 RMK A01 T02850184  RH  054%=      5-min Rain = 0
KEN1 131756Z 09004KT 29/19 A3018 RMK A01 T02860187  RH  055%=      5-min Rain = 0
KEN1 131757Z 11005KT 29/19 A3018 RMK A01 T02870186  RH  054%=      5-min Rain = 0
KEN1 131758Z 10005KT 29/19 A3018 RMK A01 T02880188  RH  055%=      5-min Rain = 0
KEN1 131759Z 08005KT 29/19 A3018 RMK A01 T02880189  RH  055%=      5-min Rain = 0
KEN1 131800Z 08004KT 29/19 A3018 RMK A01 T02880185  RH  054%=      5-min Rain = 0
KEN1 131801Z 06003KT 29/18 A3018 RMK A01 T02870184  RH  054%=      5-min Rain = 0
KEN1 131802Z 07005KT 29/19 A3018 RMK A01 T02860188  RH  055%=      5-min Rain = 0
KEN1 131803Z 08003KT 29/19 A3018 RMK A01 T02860185  RH  054%=      5-min Rain = 0
KEN1 131804Z 09005KT 29/19 A3017 RMK A01 T02860187  RH  055%=      5-min Rain = 0
KEN1 131805Z 09005KT 29/19 A3017 RMK A01 T02850185  RH  055%=      5-min Rain = 0
KEN1 131806Z 11007KT 28/19 A3017 RMK A01 T02840187  RH  056%=      5-min Rain = 0
KEN1 131807Z 09005KT 29/19 A3017 RMK A01 T02880191  RH  056%=      5-min Rain = 0
KEN1 131808Z 07004KT 29/19 A3017 RMK A01 T02920190  RH  054%=      5-min Rain = 0
KEN1 131809Z 08003KT 29/19 A3017 RMK A01 T02910186  RH  053%=      5-min Rain = 0
KEN1 131810Z 09005KT 29/19 A3017 RMK A01 T02900188  RH  054%=      5-min Rain = 0
KEN1 131811Z 09005KT 29/19 A3017 RMK A01 T02900188  RH  054%=      5-min Rain = 0
KEN1 131812Z 10006KT 29/19 A3017 RMK A01 T02910191  RH  055%=      5-min Rain = 0
KEN1 131813Z 10004KT 29/19 A3017 RMK A01 T02930186  RH  053%=      5-min Rain = 0
KEN1 131814Z 09004KT 29/19 A3017 RMK A01 T02920188  RH  053%=      5-min Rain = 0
KEN1 131815Z 09003KT 29/19 A3017 RMK A01 T02920185  RH  053%=      5-min Rain = 0
KEN1 131816Z 10004KT 29/19 A3017 RMK A01 T02910187  RH  053%=      5-min Rain = 0
KEN1 131817Z 11002KT 29/19 A3017 RMK A01 T02930185  RH  052%=      5-min Rain = 0
KEN1 131818Z 11001KT 29/19 A3017 RMK A01 T02930185  RH  052%=      5-min Rain = 0
KEN1 131819Z 10001KT 29/19 A3017 RMK A01 T02930186  RH  052%=      5-min Rain = 0
KEN1 131820Z 09003KT 29/19 A3017 RMK A01 T02940190  RH  053%=      5-min Rain = 0
KEN1 131821Z 10005KT 30/19 A3017 RMK A01 T02960190  RH  053%=      5-min Rain = 0
KEN1 131822Z 09003KT 30/19 A3017 RMK A01 T02960186  RH  051%=      5-min Rain = 0
KEN1 131823Z 05005KT 30/19 A3017 RMK A01 T02950190  RH  053%=      5-min Rain = 0
KEN1 131824Z 05007KT 30/19 A3017 RMK A01 T02960191  RH  053%=      5-min Rain = 0
KEN1 131825Z 07006KT 30/19 A3017 RMK A01 T02970188  RH  052%=      5-min Rain = 0
KEN1 131826Z 06005KT 30/19 A3017 RMK A01 T02960187  RH  052%=      5-min Rain = 0
KEN1 131827Z 09002KT 30/19 A3017 RMK A01 T02950186  RH  052%=      5-min Rain = 0
KEN1 131828Z 10004KT 29/19 A3017 RMK A01 T02930186  RH  052%=      5-min Rain = 0
KEN1 131829Z 08005KT 29/19 A3017 RMK A01 T02940191  RH  054%=      5-min Rain = 0
KEN1 131830Z 11005KT 30/19 A3017 RMK A01 T02960188  RH  052%=      5-min Rain = 0
KEN1 131831Z 06006KT 30/19 A3017 RMK A01 T02970188  RH  052%=      5-min Rain = 0
KEN1 131832Z 04006KT 30/19 A3017 RMK A01 T02970187  RH  051%=      5-min Rain = 0
KEN1 131833Z 06006KT 30/19 A3017 RMK A01 T02960189  RH  053%=      5-min Rain = 0
KEN1 131834Z 04003KT 30/19 A3017 RMK A01 T02970187  RH  052%=      5-min Rain = 0
KEN1 131835Z 03002KT 30/19 A3017 RMK A01 T02970191  RH  053%=      5-min Rain = 0
KEN1 131836Z 03003KT 30/19 A3017 RMK A01 T02980192  RH  053%=      5-min Rain = 0
KEN1 131837Z 35001KT 30/18 A3017 RMK A01 T02990184  RH  050%=      5-min Rain = 0
KEN1 131838Z 02003KT 30/19 A3017 RMK A01 T02980186  RH  051%=      5-min Rain = 0
KEN1 131839Z 03004KT 30/19 A3017 RMK A01 T02970186  RH  051%=      5-min Rain = 0
KEN1 131840Z 05005KT 30/19 A3017 RMK A01 T02970188  RH  052%=      5-min Rain = 0
KEN1 131841Z 03007KT 30/19 A3017 RMK A01 T02990190  RH  052%=      5-min Rain = 0
KEN1 131842Z 06006KT 30/19 A3017 RMK A01 T03010189  RH  051%=      5-min Rain = 0
KEN1 131843Z 10005KT 30/19 A3017 RMK A01 T03020188  RH  051%=      5-min Rain = 0
KEN1 131844Z 13005KT 30/19 A3017 RMK A01 T03020186  RH  050%=      5-min Rain = 0
KEN1 131845Z 14004KT 30/19 A3017 RMK A01 T03010185  RH  050%=      5-min Rain = 0
KEN1 131846Z 12004KT 30/19 A3017 RMK A01 T03010187  RH  051%=      5-min Rain = 0
KEN1 131847Z 09007KT 30/19 A3017 RMK A01 T03010186  RH  050%=      5-min Rain = 0
KEN1 131848Z 11006KT 30/18 A3017 RMK A01 T03020183  RH  049%=      5-min Rain = 0
KEN1 131849Z 06005KT 30/18 A3017 RMK A01 T03020183  RH  049%=      5-min Rain = 0
KEN1 131850Z 07007KT 30/19 A3017 RMK A01 T03020185  RH  049%=      5-min Rain = 0
KEN1 131851Z 06005KT 30/18 A3017 RMK A01 T03020184  RH  049%=      5-min Rain = 0
KEN1 131852Z 06005KT 30/18 A3016 RMK A01 T03020184  RH  049%=      5-min Rain = 0
KEN1 131853Z 06008KT 30/18 A3016 RMK A01 T03020184  RH  049%=      5-min Rain = 0
KEN1 131854Z 06009KT 30/18 A3016 RMK A01 T03040184  RH  049%=      5-min Rain = 0
KEN1 131855Z 04007KT 31/19 A3016 RMK A01 T03050185  RH  049%=      5-min Rain = 0
KEN1 131856Z 03008KT 31/19 A3016 RMK A01 T03050186  RH  049%=      5-min Rain = 0
KEN1 131857Z 04007KT 30/18 A3016 RMK A01 T03040180  RH  047%=      5-min Rain = 0
KEN1 131858Z 04008KT 30/19 A3016 RMK A01 T03030185  RH  049%=      5-min Rain = 0
KEN1 131859Z 04006KT 31/18 A3016 RMK A01 T03050183  RH  048%=      5-min Rain = 0
KEN1 131900Z 06009KT 31/19 A3016 RMK A01 T03070187  RH  049%=      5-min Rain = 0
KEN1 131901Z 07005KT 31/19 A3016 RMK A01 T03080186  RH  048%=      5-min Rain = 0
KEN1 131902Z 09002KT 31/18 A3016 RMK A01 T03080184  RH  048%=      5-min Rain = 0
KEN1 131903Z 16001KT 31/18 A3016 RMK A01 T03060182  RH  047%=      5-min Rain = 0
KEN1 131904Z 07003KT 31/19 A3016 RMK A01 T03050185  RH  049%=      5-min Rain = 0
KEN1 131905Z 08006G11KT 31/18 A3016 RMK A01 T03060184  RH  048%=      5-min Rain = 0
KEN1 131906Z 12008KT 31/18 A3016 RMK A01 T03080180  RH  046%=      5-min Rain = 0
KEN1 131907Z 10006KT 31/18 A3016 RMK A01 T03090178  RH  046%=      5-min Rain = 0
KEN1 131908Z 05005KT 31/18 A3016 RMK A01 T03080181  RH  047%=      5-min Rain = 0
KEN1 131909Z 10003KT 31/18 A3016 RMK A01 T03080181  RH  047%=      5-min Rain = 0
KEN1 131910Z 13004KT 31/18 A3016 RMK A01 T03090184  RH  047%=      5-min Rain = 0
KEN1 131911Z 13009G14KT 31/18 A3016 RMK A01 T03110181  RH  046%=      5-min Rain = 0
KEN1 131912Z 14009KT 31/18 A3016 RMK A01 T03140177  RH  044%=      5-min Rain = 0
KEN1 131913Z 11010KT 31/18 A3016 RMK A01 T03140178  RH  044%=      5-min Rain = 0
KEN1 131914Z 09012KT 32/17 A3016 RMK A01 T03160174  RH  043%=      5-min Rain = 0
KEN1 131915Z 11009KT 32/17 A3016 RMK A01 T03150169  RH  042%=      5-min Rain = 0
KEN1 131916Z 12008KT 31/17 A3016 RMK A01 T03120173  RH  043%=      5-min Rain = 0
KEN1 131917Z 11005KT 31/17 A3016 RMK A01 T03120169  RH  042%=      5-min Rain = 0
KEN1 131918Z 09003KT 31/17 A3016 RMK A01 T03110172  RH  044%=      5-min Rain = 0
KEN1 131919Z 08005KT 31/18 A3016 RMK A01 T03110177  RH  045%=      5-min Rain = 0
KEN1 131920Z 06006KT 31/18 A3016 RMK A01 T03110175  RH  044%=      5-min Rain = 0
KEN1 131921Z 05008KT 31/18 A3016 RMK A01 T03110175  RH  044%=      5-min Rain = 0
KEN1 131922Z 05008KT 31/18 A3016 RMK A01 T03120175  RH  044%=      5-min Rain = 0
KEN1 131923Z 05005KT 31/17 A3016 RMK A01 T03110173  RH  044%=      5-min Rain = 0
KEN1 131924Z 04005KT 31/17 A3016 RMK A01 T03090172  RH  044%=      5-min Rain = 0
KEN1 131925Z 07005KT 31/18 A3016 RMK A01 T03100179  RH  046%=      5-min Rain = 0
KEN1 131926Z 09007KT 31/18 A3016 RMK A01 T03120177  RH  045%=      5-min Rain = 0
KEN1 131927Z 06004KT 31/18 A3015 RMK A01 T03120179  RH  045%=      5-min Rain = 0
KEN1 131928Z 09007KT 31/18 A3015 RMK A01 T03120182  RH  046%=      5-min Rain = 0
KEN1 131929Z 07009KT 31/19 A3015 RMK A01 T03130185  RH  046%=      5-min Rain = 0
KEN1 131930Z 09006KT 32/19 A3015 RMK A01 T03150187  RH  047%=      5-min Rain = 0
KEN1 131931Z 10007KT 32/19 A3015 RMK A01 T03180186  RH  045%=      5-min Rain = 0
KEN1 131932Z 12007KT 32/18 A3015 RMK A01 T03180184  RH  045%=      5-min Rain = 0
KEN1 131933Z 10003KT 32/18 A3015 RMK A01 T03160180  RH  044%=      5-min Rain = 0
KEN1 131934Z 13007KT 32/18 A3015 RMK A01 T03150180  RH  045%=      5-min Rain = 0
KEN1 131935Z 15008KT 31/18 A3015 RMK A01 T03140179  RH  045%=      5-min Rain = 0
KEN1 131936Z 16008KT 32/18 A3015 RMK A01 T03150181  RH  045%=      5-min Rain = 0
KEN1 131937Z 15009KT 32/18 A3015 RMK A01 T03170183  RH  045%=      5-min Rain = 0
KEN1 131938Z 15007KT 32/18 A3015 RMK A01 T03180181  RH  044%=      5-min Rain = 0
KEN1 131939Z 14005KT 32/18 A3015 RMK A01 T03170181  RH  044%=      5-min Rain = 0
KEN1 131940Z 14006KT 32/19 A3015 RMK A01 T03170187  RH  046%=      5-min Rain = 0
KEN1 131941Z 15006KT 32/18 A3015 RMK A01 T03210181  RH  043%=      5-min Rain = 0
KEN1 131942Z 13002KT 32/18 A3015 RMK A01 T03200181  RH  044%=      5-min Rain = 0
KEN1 131943Z 10006KT 32/18 A3015 RMK A01 T03190184  RH  045%=      5-min Rain = 0
KEN1 131944Z 09006KT 32/18 A3015 RMK A01 T03190182  RH  044%=      5-min Rain = 0
KEN1 131945Z 10007KT 32/18 A3015 RMK A01 T03190184  RH  045%=      5-min Rain = 0
KEN1 131946Z 13006KT 32/18 A3015 RMK A01 T03190182  RH  044%=      5-min Rain = 0
KEN1 131947Z 09004KT 32/19 A3015 RMK A01 T03210186  RH  045%=      5-min Rain = 0
KEN1 131948Z 08010KT 32/18 A3015 RMK A01 T03240181  RH  043%=      5-min Rain = 0
KEN1 131949Z 09009KT 32/18 A3015 RMK A01 T03220180  RH  043%=      5-min Rain = 0
KEN1 131950Z 08007KT 32/18 A3015 RMK A01 T03210180  RH  043%=      5-min Rain = 0
KEN1 131951Z 08004KT 32/18 A3015 RMK A01 T03210175  RH  042%=      5-min Rain = 0
KEN1 131952Z 09006KT 32/18 A3015 RMK A01 T03190180  RH  044%=      5-min Rain = 0
KEN1 131953Z 10006KT 32/18 A3015 RMK A01 T03190178  RH  043%=      5-min Rain = 0
KEN1 131954Z 09007KT 32/18 A3015 RMK A01 T03190180  RH  044%=      5-min Rain = 0
KEN1 131955Z 09007KT 32/18 A3015 RMK A01 T03200180  RH  043%=      5-min Rain = 0
KEN1 131956Z 10006KT 32/18 A3015 RMK A01 T03190178  RH  043%=      5-min Rain = 0
KEN1 131957Z 12004KT 32/18 A3014 RMK A01 T03180179  RH  044%=      5-min Rain = 0
KEN1 131958Z 13002KT 32/18 A3014 RMK A01 T03170177  RH  043%=      5-min Rain = 0
KEN1 131959Z 08007KT 32/18 A3014 RMK A01 T03170178  RH  044%=      5-min Rain = 0
KEN1 132000Z 09010KT 32/18 A3014 RMK A01 T03180180  RH  044%=      5-min Rain = 0
KEN1 132001Z 09009KT 32/18 A3014 RMK A01 T03190177  RH  043%=      5-min Rain = 0
KEN1 132002Z 09008KT 32/18 A3014 RMK A01 T03180177  RH  043%=      5-min Rain = 0
KEN1 132003Z 08009KT 32/18 A3014 RMK A01 T03180179  RH  044%=      5-min Rain = 0
KEN1 132004Z 08008KT 32/18 A3014 RMK A01 T03200177  RH  042%=      5-min Rain = 0
KEN1 132005Z 07008KT 32/18 A3014 RMK A01 T03210176  RH  042%=      5-min Rain = 0
KEN1 132006Z 08007KT 32/18 A3014 RMK A01 T03210175  RH  042%=      5-min Rain = 0
KEN1 132007Z 08004KT 32/17 A3014 RMK A01 T03170173  RH  042%=      5-min Rain = 0
KEN1 132008Z 10004KT 32/17 A3014 RMK A01 T03170173  RH  042%=      5-min Rain = 0
KEN1 132009Z 10005KT 32/17 A3014 RMK A01 T03170174  RH  042%=      5-min Rain = 0
KEN1 132010Z 10008KT 32/18 A3014 RMK A01 T03190179  RH  043%=      5-min Rain = 0
KEN1 132011Z 09011KT 32/18 A3014 RMK A01 T03240181  RH  043%=      5-min Rain = 0
KEN1 132012Z 09010KT 33/18 A3014 RMK A01 T03260178  RH  041%=      5-min Rain = 0
KEN1 132013Z 08006KT 32/18 A3014 RMK A01 T03220175  RH  042%=      5-min Rain = 0
KEN1 132014Z 09006KT 32/18 A3014 RMK A01 T03210179  RH  043%=      5-min Rain = 0
KEN1 132015Z 09007KT 32/17 A3014 RMK A01 T03220170  RH  040%=      5-min Rain = 0
KEN1 132016Z 08006KT 32/17 A3014 RMK A01 T03210166  RH  039%=      5-min Rain = 0
KEN1 132017Z 10009KT 32/17 A3014 RMK A01 T03190169  RH  041%=      5-min Rain = 0
KEN1 132018Z 12006KT 32/16 A3014 RMK A01 T03190164  RH  039%=      5-min Rain = 0
KEN1 132019Z 09005KT 32/16 A3014 RMK A01 T03190164  RH  039%=      5-min Rain = 0
KEN1 132020Z 07007KT 32/17 A3014 RMK A01 T03190165  RH  040%=      5-min Rain = 0
KEN1 132021Z 10004KT 32/17 A3013 RMK A01 T03200166  RH  040%=      5-min Rain = 0
KEN1 132022Z 07004KT 32/17 A3013 RMK A01 T03210169  RH  040%=      5-min Rain = 0
KEN1 132023Z 07004KT 32/17 A3013 RMK A01 T03210174  RH  041%=      5-min Rain = 0
KEN1 132024Z 17005KT 32/17 A3013 RMK A01 T03230173  RH  041%=      5-min Rain = 0
KEN1 132025Z 14005KT 33/17 A3013 RMK A01 T03250167  RH  039%=      5-min Rain = 0
KEN1 132026Z 09007KT 33/17 A3013 RMK A01 T03260174  RH  040%=      5-min Rain = 0
KEN1 132027Z 11007KT 33/18 A3013 RMK A01 T03280175  RH  040%=      5-min Rain = 0
KEN1 132028Z 14005KT 33/17 A3013 RMK A01 T03280171  RH  039%=      5-min Rain = 0
KEN1 132029Z 15005KT 33/17 A3013 RMK A01 T03280165  RH  038%=      5-min Rain = 0
KEN1 132030Z 11005KT 33/17 A3013 RMK A01 T03270169  RH  039%=      5-min Rain = 0
KEN1 132031Z 14008KT 33/17 A3013 RMK A01 T03270169  RH  039%=      5-min Rain = 0
KEN1 132032Z 14010KT 33/17 A3013 RMK A01 T03270166  RH  038%=      5-min Rain = 0
KEN1 132033Z 14007KT 33/17 A3013 RMK A01 T03270167  RH  038%=      5-min Rain = 0
KEN1 132034Z 13008KT 33/17 A3013 RMK A01 T03290167  RH  038%=      5-min Rain = 0
KEN1 132035Z 12006KT 33/17 A3013 RMK A01 T03290166  RH  038%=      5-min Rain = 0
KEN1 132036Z 11006KT 33/17 A3013 RMK A01 T03250170  RH  040%=      5-min Rain = 0
KEN1 132037Z 11009KT 33/17 A3013 RMK A01 T03250167  RH  039%=      5-min Rain = 0
KEN1 132038Z 12011KT 33/16 A3013 RMK A01 T03270161  RH  037%=      5-min Rain = 0
KEN1 132039Z 13009KT 33/16 A3013 RMK A01 T03270158  RH  036%=      5-min Rain = 0
KEN1 132040Z 11008KT 33/16 A3013 RMK A01 T03270162  RH  037%=      5-min Rain = 0
KEN1 132041Z 09010KT 33/16 A3013 RMK A01 T03280163  RH  037%=      5-min Rain = 0
KEN1 132042Z 09009KT 33/16 A3013 RMK A01 T03270158  RH  036%=      5-min Rain = 0
KEN1 132043Z 09006KT 32/15 A3013 RMK A01 T03240152  RH  035%=      5-min Rain = 0
KEN1 132044Z 09008KT 32/16 A3013 RMK A01 T03230158  RH  037%=      5-min Rain = 0
KEN1 132045Z 08006KT 33/16 A3013 RMK A01 T03250159  RH  037%=      5-min Rain = 0
KEN1 132046Z 09010KT 33/16 A3013 RMK A01 T03270161  RH  037%=      5-min Rain = 0
KEN1 132047Z 09005KT 33/16 A3013 RMK A01 T03270160  RH  037%=      5-min Rain = 0
KEN1 132048Z 07006KT 33/16 A3013 RMK A01 T03260156  RH  036%=      5-min Rain = 0
KEN1 132049Z 09003KT 33/16 A3012 RMK A01 T03250156  RH  036%=      5-min Rain = 0
KEN1 132050Z 11002KT 33/16 A3012 RMK A01 T03250158  RH  037%=      5-min Rain = 0
KEN1 132051Z 09003KT 33/16 A3012 RMK A01 T03270161  RH  037%=      5-min Rain = 0
KEN1 132052Z 09005KT 33/16 A3012 RMK A01 T03290160  RH  036%=      5-min Rain = 0
KEN1 132053Z 14009KT 33/16 A3012 RMK A01 T03320160  RH  036%=      5-min Rain = 0
KEN1 132054Z 13010KT 33/15 A3012 RMK A01 T03330151  RH  034%=      5-min Rain = 0
KEN1 132055Z 13010KT 33/15 A3012 RMK A01 T03310151  RH  034%=      5-min Rain = 0
KEN1 132056Z 14006KT 33/15 A3012 RMK A01 T03280150  RH  034%=      5-min Rain = 0
KEN1 132057Z 14008KT 33/16 A3012 RMK A01 T03270155  RH  036%=      5-min Rain = 0
KEN1 132058Z 12006KT 33/15 A3012 RMK A01 T03290150  RH  034%=      5-min Rain = 0
KEN1 132059Z 14006G11KT 33/15 A3012 RMK A01 T03290153  RH  035%=      5-min Rain = 0
KEN1 132100Z 09008KT 33/16 A3012 RMK A01 T03310155  RH  035%=      5-min Rain = 0
KEN1 132101Z 12006KT 33/16 A3012 RMK A01 T03310155  RH  035%=      5-min Rain = 0
KEN1 132102Z 12006KT 33/15 A3012 RMK A01 T03310154  RH  035%=      5-min Rain = 0
KEN1 132103Z 15003KT 33/15 A3012 RMK A01 T03290152  RH  034%=      5-min Rain = 0
KEN1 132104Z 10005KT 33/16 A3012 RMK A01 T03280156  RH  036%=      5-min Rain = 0
KEN1 132105Z 12004KT 33/16 A3012 RMK A01 T03280155  RH  035%=      5-min Rain = 0
KEN1 132106Z 13008KT 33/16 A3012 RMK A01 T03280156  RH  035%=      5-min Rain = 0
KEN1 132107Z 12009KT 33/16 A3012 RMK A01 T03310161  RH  036%=      5-min Rain = 0
KEN1 132108Z 10008G14KT 33/16 A3012 RMK A01 T03320157  RH  035%=      5-min Rain = 0
KEN1 132109Z 10012KT 33/16 A3011 RMK A01 T03330159  RH  035%=      5-min Rain = 0
KEN1 132110Z 08011KT 33/16 A3011 RMK A01 T03320157  RH  035%=      5-min Rain = 0
KEN1 132111Z 08009KT 33/16 A3011 RMK A01 T03320158  RH  035%=      5-min Rain = 0
KEN1 132112Z 11009KT 33/16 A3011 RMK A01 T03300155  RH  035%=      5-min Rain = 0
KEN1 132113Z 11009KT 33/15 A3011 RMK A01 T03300152  RH  034%=      5-min Rain = 0
KEN1 132114Z 10010KT 33/15 A3011 RMK A01 T03290154  RH  035%=      5-min Rain = 0
KEN1 132115Z 08011KT 33/16 A3011 RMK A01 T03300158  RH  036%=      5-min Rain = 0
KEN1 132116Z 10011KT 33/16 A3011 RMK A01 T03320161  RH  036%=      5-min Rain = 0
KEN1 132117Z 10011KT 33/16 A3011 RMK A01 T03310159  RH  036%=      5-min Rain = 0
KEN1 132118Z 09012KT 33/16 A3011 RMK A01 T03310160  RH  036%=      5-min Rain = 0
KEN1 132119Z 10010KT 33/16 A3011 RMK A01 T03310155  RH  035%=      5-min Rain = 0
KEN1 132120Z 11008KT 33/16 A3011 RMK A01 T03300161  RH  036%=      5-min Rain = 0
KEN1 132121Z 13009KT 33/16 A3011 RMK A01 T03300161  RH  036%=      5-min Rain = 0
KEN1 132122Z 11008KT 33/16 A3011 RMK A01 T03310162  RH  036%=      5-min Rain = 0
KEN1 132123Z 09008KT 33/16 A3011 RMK A01 T03310158  RH  035%=      5-min Rain = 0
KEN1 132124Z 09008KT 33/16 A3011 RMK A01 T03300162  RH  037%=      5-min Rain = 0
KEN1 132125Z 09005KT 33/16 A3011 RMK A01 T03290160  RH  036%=      5-min Rain = 0
KEN1 132126Z 07006KT 33/17 A3011 RMK A01 T03290165  RH  037%=      5-min Rain = 0
KEN1 132127Z 10004KT 33/16 A301 RMK A01 T03310155  RH  035%=      5-min Rain = 0
KEN1 132128Z 06005KT 33/16 A301 RMK A01 T03290159  RH  036%=      5-min Rain = 0
KEN1 132129Z 07010KT 33/16 A301 RMK A01 T03300159  RH  036%=      5-min Rain = 0
KEN1 132130Z 07010KT 33/16 A301 RMK A01 T03310158  RH  035%=      5-min Rain = 0
KEN1 132131Z 10011KT 33/16 A301 RMK A01 T03310158  RH  035%=      5-min Rain = 0
KEN1 132132Z 10008KT 33/16 A301 RMK A01 T03320163  RH  036%=      5-min Rain = 0
KEN1 132133Z 09012KT 33/16 A301 RMK A01 T03340164  RH  036%=      5-min Rain = 0
KEN1 132134Z 09012KT 33/17 A301 RMK A01 T03330165  RH  036%=      5-min Rain = 0
KEN1 132135Z 07010KT 33/16 A301 RMK A01 T03320164  RH  036%=      5-min Rain = 0
KEN1 132136Z 07007KT 33/16 A301 RMK A01 T03330163  RH  036%=      5-min Rain = 0
KEN1 132137Z 10008KT 33/17 A301 RMK A01 T03330165  RH  037%=      5-min Rain = 0
KEN1 132138Z 09010G15KT 33/16 A301 RMK A01 T03340164  RH  036%=      5-min Rain = 0
KEN1 132139Z 09013KT 33/16 A301 RMK A01 T03340162  RH  036%=      5-min Rain = 0
KEN1 132140Z 09009KT 33/16 A301 RMK A01 T03340162  RH  036%=      5-min Rain = 0
KEN1 132141Z 08009KT 33/16 A301 RMK A01 T03330162  RH  036%=      5-min Rain = 0
KEN1 132142Z 07009KT 33/17 A301 RMK A01 T03340165  RH  037%=      5-min Rain = 0
KEN1 132143Z 06010KT 34/16 A301 RMK A01 T03360159  RH  035%=      5-min Rain = 0
KEN1 132144Z 07009KT 33/17 A301 RMK A01 T03340165  RH  036%=      5-min Rain = 0
KEN1 132145Z 08006KT 34/17 A301 RMK A01 T03360165  RH  036%=      5-min Rain = 0
KEN1 132146Z 09007KT 34/17 A301 RMK A01 T03380167  RH  036%=      5-min Rain = 0
KEN1 132147Z 09010KT 34/16 A301 RMK A01 T03400164  RH  035%=      5-min Rain = 0
KEN1 132148Z 10011KT 34/17 A301 RMK A01 T03400165  RH  035%=      5-min Rain = 0
KEN1 132149Z 08013KT 34/16 A301 RMK A01 T03380162  RH  035%=      5-min Rain = 0
KEN1 132150Z 09011KT 34/16 A301 RMK A01 T03360164  RH  036%=      5-min Rain = 0
KEN1 132151Z 07011KT 34/16 A301 RMK A01 T03360161  RH  035%=      5-min Rain = 0
KEN1 132152Z 09013KT 34/16 A301 RMK A01 T03350162  RH  036%=      5-min Rain = 0
KEN1 132153Z 11011KT 33/16 A301 RMK A01 T03340160  RH  035%=      5-min Rain = 0
KEN1 132154Z 09011KT 34/16 A301 RMK A01 T03350160  RH  035%=      5-min Rain = 0
KEN1 132155Z 08011KT 34/16 A301 RMK A01 T03350160  RH  035%=      5-min Rain = 0
KEN1 132156Z 08009KT 33/16 A3009 RMK A01 T03330157  RH  035%=      5-min Rain = 0
KEN1 132157Z 08007KT 33/16 A3009 RMK A01 T03320162  RH  036%=      5-min Rain = 0
KEN1 132158Z 09009KT 33/16 A3009 RMK A01 T03330159  RH  035%=      5-min Rain = 0
KEN1 132159Z 09007KT 33/16 A3009 RMK A01 T03340158  RH  035%=      5-min Rain = 0
KEN1 132200Z 09009G14KT 33/16 A3009 RMK A01 T03340160  RH  035%=      5-min Rain = 0
KEN1 132201Z 12010KT 34/16 A3009 RMK A01 T03350157  RH  034%=      5-min Rain = 0
KEN1 132202Z 09009KT 34/16 A3009 RMK A01 T03350155  RH  034%=      5-min Rain = 0
KEN1 132203Z 08007KT 33/16 A3009 RMK A01 T03340155  RH  034%=      5-min Rain = 0
KEN1 132204Z 07009KT 33/16 A3009 RMK A01 T03330159  RH  035%=      5-min Rain = 0
KEN1 132205Z 08012G19KT 33/16 A3009 RMK A01 T03340160  RH  035%=      5-min Rain = 0
KEN1 132206Z 10011KT 34/16 A3009 RMK A01 T03360164  RH  036%=      5-min Rain = 0
KEN1 132207Z 08013KT 34/17 A3009 RMK A01 T03410166  RH  035%=      5-min Rain = 0
KEN1 132208Z 08009KT 34/16 A3009 RMK A01 T03410160  RH  034%=      5-min Rain = 0
KEN1 132209Z 08008KT 34/16 A3009 RMK A01 T03370160  RH  035%=      5-min Rain = 0
KEN1 132210Z 08006KT 34/16 A3009 RMK A01 T03360158  RH  034%=      5-min Rain = 0
KEN1 132211Z 08010KT 34/17 A3009 RMK A01 T03360165  RH  036%=      5-min Rain = 0
KEN1 132212Z 09012KT 34/16 A3009 RMK A01 T03390164  RH  035%=      5-min Rain = 0
KEN1 132213Z 11010KT 34/16 A3009 RMK A01 T03380159  RH  034%=      5-min Rain = 0
KEN1 132214Z 11010KT 34/16 A3009 RMK A01 T03360159  RH  035%=      5-min Rain = 0
KEN1 132215Z 10010KT 34/16 A3009 RMK A01 T03350160  RH  035%=      5-min Rain = 0
KEN1 132216Z 09011KT 34/16 A3009 RMK A01 T03360162  RH  035%=      5-min Rain = 0
KEN1 132217Z 09008KT 34/16 A3009 RMK A01 T03350162  RH  036%=      5-min Rain = 0
KEN1 132218Z 08010KT 34/17 A3009 RMK A01 T03350166  RH  036%=      5-min Rain = 0
KEN1 132219Z 10009KT 34/16 A3009 RMK A01 T03370163  RH  035%=      5-min Rain = 0
KEN1 132220Z 07009KT 34/16 A3009 RMK A01 T03370162  RH  035%=      5-min Rain = 0
KEN1 132221Z 10013G22KT 34/16 A3009 RMK A01 T03380164  RH  035%=      5-min Rain = 0
KEN1 132222Z 10013KT 34/16 A3009 RMK A01 T03400162  RH  035%=      5-min Rain = 0
KEN1 132223Z 08012KT 34/16 A3009 RMK A01 T03380158  RH  034%=      5-min Rain = 0
KEN1 132224Z 09010KT 34/16 A3009 RMK A01 T03350162  RH  036%=      5-min Rain = 0
KEN1 132225Z 09009KT 34/16 A3009 RMK A01 T03360159  RH  035%=      5-min Rain = 0
KEN1 132226Z 10012KT 34/16 A3009 RMK A01 T03360163  RH  035%=      5-min Rain = 0
KEN1 132227Z 11013KT 34/16 A3009 RMK A01 T03390158  RH  034%=      5-min Rain = 0
KEN1 132228Z 12011KT 34/16 A3009 RMK A01 T03370156  RH  034%=      5-min Rain = 0
KEN1 132229Z 13010KT 34/16 A3009 RMK A01 T03360155  RH  034%=      5-min Rain = 0
KEN1 132230Z 09009KT 34/16 A3009 RMK A01 T03360158  RH  035%=      5-min Rain = 0
KEN1 132231Z 09009KT 34/16 A3009 RMK A01 T03360158  RH  034%=      5-min Rain = 0
KEN1 132232Z 09011KT 34/16 A3009 RMK A01 T03370161  RH  035%=      5-min Rain = 0
KEN1 132233Z 09009KT 34/16 A3009 RMK A01 T03370158  RH  034%=      5-min Rain = 0
KEN1 132234Z 09008KT 34/16 A3009 RMK A01 T03350160  RH  035%=      5-min Rain = 0
KEN1 132235Z 09010KT 34/16 A3009 RMK A01 T03360163  RH  036%=      5-min Rain = 0
KEN1 132236Z 08010KT 34/16 A3009 RMK A01 T03370161  RH  035%=      5-min Rain = 0
KEN1 132237Z 11010KT 34/16 A3009 RMK A01 T03380164  RH  035%=      5-min Rain = 0
KEN1 132238Z 09012KT 34/16 A3009 RMK A01 T03410161  RH  034%=      5-min Rain = 0
KEN1 132239Z 08007KT 34/16 A3009 RMK A01 T03390156  RH  033%=      5-min Rain = 0
KEN1 132240Z 10012KT 34/16 A3009 RMK A01 T03380160  RH  035%=      5-min Rain = 0
KEN1 132241Z 11013KT 34/16 A3009 RMK A01 T03370160  RH  035%=      5-min Rain = 0
KEN1 132242Z 10011KT 34/16 A3009 RMK A01 T03390158  RH  034%=      5-min Rain = 0
KEN1 132243Z 10010KT 34/16 A3009 RMK A01 T03380159  RH  034%=      5-min Rain = 0
KEN1 132244Z 09011KT 34/16 A3009 RMK A01 T03390162  RH  035%=      5-min Rain = 0
KEN1 132245Z 10013KT 34/16 A3009 RMK A01 T03400161  RH  034%=      5-min Rain = 0
KEN1 132246Z 10014KT 34/16 A3009 RMK A01 T03400158  RH  034%=      5-min Rain = 0
KEN1 132247Z 10013KT 34/16 A3009 RMK A01 T03400155  RH  033%=      5-min Rain = 0
KEN1 132248Z 11012KT 34/16 A3009 RMK A01 T03390156  RH  033%=      5-min Rain = 0
KEN1 132249Z 12010KT 34/15 A3009 RMK A01 T03380151  RH  032%=      5-min Rain = 0
KEN1 132250Z 12006KT 34/15 A3009 RMK A01 T03360151  RH  033%=      5-min Rain = 0
KEN1 132251Z 09009KT 34/16 A3009 RMK A01 T03360156  RH  034%=      5-min Rain = 0
KEN1 132252Z 08009KT 34/16 A3009 RMK A01 T03380155  RH  034%=      5-min Rain = 0
KEN1 132253Z 08007KT 34/16 A3009 RMK A01 T03370155  RH  034%=      5-min Rain = 0
KEN1 132254Z 08010KT 34/16 A3009 RMK A01 T03370156  RH  034%=      5-min Rain = 0
KEN1 132255Z 08013KT 34/16 A3009 RMK A01 T03380158  RH  034%=      5-min Rain = 0
KEN1 132256Z 09012KT 34/16 A3009 RMK A01 T03400160  RH  034%=      5-min Rain = 0
KEN1 132257Z 08012KT 34/16 A3009 RMK A01 T03400157  RH  034%=      5-min Rain = 0
KEN1 132258Z 09010KT 34/16 A3009 RMK A01 T03360155  RH  034%=      5-min Rain = 0
KEN1 132259Z 09012KT 34/16 A3009 RMK A01 T03350160  RH  035%=      5-min Rain = 0
KEN1 132300Z 09009KT 34/16 A3009 RMK A01 T03360162  RH  035%=      5-min Rain = 0
KEN1 132301Z 09013KT 34/16 A3009 RMK A01 T03360162  RH  035%=      5-min Rain = 0
KEN1 132302Z 11008KT 34/16 A3009 RMK A01 T03360158  RH  034%=      5-min Rain = 0
KEN1 132303Z 11007KT 34/16 A3009 RMK A01 T03370158  RH  034%=      5-min Rain = 0
KEN1 132304Z 09008KT 34/16 A3009 RMK A01 T03400158  RH  034%=      5-min Rain = 0
KEN1 132305Z 08009KT 34/16 A3009 RMK A01 T03400160  RH  034%=      5-min Rain = 0
KEN1 132306Z 07007G13KT 34/16 A3009 RMK A01 T03370161  RH  035%=      5-min Rain = 0
KEN1 132307Z 09010KT 34/16 A3009 RMK A01 T03370161  RH  035%=      5-min Rain = 0
KEN1 132308Z 10011KT 34/16 A3009 RMK A01 T03390161  RH  035%=      5-min Rain = 0
KEN1 132309Z 10012KT 34/15 A3009 RMK A01 T03410148  RH  031%=      5-min Rain = 0
KEN1 132310Z 09009KT 34/15 A3009 RMK A01 T03400148  RH  032%=      5-min Rain = 0
KEN1 132311Z 09008KT 34/15 A3009 RMK A01 T03400150  RH  032%=      5-min Rain = 0
KEN1 132312Z 11004KT 34/16 A3009 RMK A01 T03390155  RH  033%=      5-min Rain = 0
KEN1 132313Z 12009KT 34/15 A3009 RMK A01 T03400154  RH  033%=      5-min Rain = 0
KEN1 132314Z 11009KT 34/15 A3009 RMK A01 T03410148  RH  032%=      5-min Rain = 0
KEN1 132315Z 10011KT 34/15 A3009 RMK A01 T03400154  RH  033%=      5-min Rain = 0
KEN1 132316Z 10009KT 34/15 A3009 RMK A01 T03410154  RH  033%=      5-min Rain = 0
KEN1 132317Z 10011KT 34/15 A3009 RMK A01 T03400153  RH  033%=      5-min Rain = 0
KEN1 132318Z 08010KT 34/15 A3009 RMK A01 T03390154  RH  033%=      5-min Rain = 0
KEN1 132319Z 08010KT 34/15 A3009 RMK A01 T03380150  RH  032%=      5-min Rain = 0
KEN1 132320Z 09013KT 34/15 A3009 RMK A01 T03380150  RH  032%=      5-min Rain = 0
KEN1 132321Z 09013KT 34/15 A3009 RMK A01 T03390149  RH  032%=      5-min Rain = 0
KEN1 132322Z 09012KT 34/15 A3009 RMK A01 T03390147  RH  032%=      5-min Rain = 0
KEN1 132323Z 09011KT 34/15 A3009 RMK A01 T03380147  RH  032%=      5-min Rain = 0
KEN1 132324Z 10013KT 34/15 A3009 RMK A01 T03380147  RH  032%=      5-min Rain = 0
KEN1 132325Z 11010KT 34/15 A3009 RMK A01 T03370145  RH  031%=      5-min Rain = 0
KEN1 132326Z 10009KT 34/15 A3009 RMK A01 T03370145  RH  032%=      5-min Rain = 0
KEN1 132327Z 08011KT 34/15 A3009 RMK A01 T03370148  RH  032%=      5-min Rain = 0
KEN1 132328Z 07014KT 34/15 A3009 RMK A01 T03370149  RH  032%=      5-min Rain = 0
KEN1 132329Z 08012KT 34/15 A3009 RMK A01 T03370148  RH  032%=      5-min Rain = 0
KEN1 132330Z 08012KT 34/15 A3009 RMK A01 T03350149  RH  033%=      5-min Rain = 0
KEN1 132331Z 09009KT 34/15 A3009 RMK A01 T03350151  RH  033%=      5-min Rain = 0
KEN1 132332Z 09009KT 34/15 A3009 RMK A01 T03360152  RH  033%=      5-min Rain = 0
KEN1 132333Z 08011KT 34/15 A3009 RMK A01 T03360149  RH  033%=      5-min Rain = 0
KEN1 132334Z 08011KT 34/15 A3009 RMK A01 T03360149  RH  033%=      5-min Rain = 0
KEN1 132335Z 09010KT 34/15 A3009 RMK A01 T03360152  RH  033%=      5-min Rain = 0
KEN1 132336Z 10010KT 34/15 A3009 RMK A01 T03360153  RH  033%=      5-min Rain = 0
KEN1 132337Z 09009KT 34/15 A3009 RMK A01 T03370151  RH  033%=      5-min Rain = 0
KEN1 132338Z 10009KT 34/15 A3009 RMK A01 T03370148  RH  032%=      5-min Rain = 0
KEN1 132339Z 11010KT 34/15 A3009 RMK A01 T03360150  RH  033%=      5-min Rain = 0
KEN1 132340Z 11009KT 34/15 A3009 RMK A01 T03370150  RH  032%=      5-min Rain = 0
KEN1 132341Z 11011KT 34/15 A3009 RMK A01 T03370149  RH  032%=      5-min Rain = 0
KEN1 132342Z 11011G16KT 34/15 A3009 RMK A01 T03360147  RH  032%=      5-min Rain = 0
KEN1 132343Z 12007KT 34/15 A3009 RMK A01 T03350145  RH  032%=      5-min Rain = 0
KEN1 132344Z 10006KT 33/15 A3009 RMK A01 T03340148  RH  033%=      5-min Rain = 0
KEN1 132345Z 10009KT 33/15 A3009 RMK A01 T03340152  RH  034%=      5-min Rain = 0
KEN1 132346Z 12010KT 33/15 A3009 RMK A01 T03340151  RH  033%=      5-min Rain = 0
KEN1 132347Z 11010KT 33/15 A3009 RMK A01 T03320152  RH  034%=      5-min Rain = 0
KEN1 132348Z 11009KT 33/15 A3009 RMK A01 T03300153  RH  035%=      5-min Rain = 0
KEN1 132349Z 11009KT 33/15 A3009 RMK A01 T03280151  RH  034%=      5-min Rain = 0
KEN1 132350Z 11008KT 33/15 A3009 RMK A01 T03250150  RH  035%=      5-min Rain = 0
KEN1 132351Z 11007KT 32/15 A3009 RMK A01 T03240153  RH  036%=      5-min Rain = 0
KEN1 132352Z 11008KT 32/15 A3009 RMK A01 T03230152  RH  036%=      5-min Rain = 0
KEN1 132353Z 10009KT 32/15 A3009 RMK A01 T03230151  RH  036%=      5-min Rain = 0
KEN1 132354Z 09010KT 32/15 A3009 RMK A01 T03230150  RH  035%=      5-min Rain = 0
KEN1 132355Z 08011KT 32/15 A3009 RMK A01 T03210148  RH  035%=      5-min Rain = 0
KEN1 132356Z 08011KT 32/15 A3009 RMK A01 T03190147  RH  035%=      5-min Rain = 0
KEN1 132357Z 08011KT 32/15 A3009 RMK A01 T03180147  RH  035%=      5-min Rain = 0
KEN1 132358Z 08010KT 32/15 A3009 RMK A01 T03180147  RH  035%=      5-min Rain = 0
KEN1 132359Z 08010KT 32/15 A3009 RMK A01 T03180146  RH  035%=      5-min Rain = 0
KEN1 140000Z 08008KT 32/15 A3009 RMK A01 T03180149  RH  036%=      5-min Rain = 0
KEN1 140001Z 09008KT 32/15 A3009 RMK A01 T03190151  RH  036%=      5-min Rain = 0
KEN1 140002Z 11008KT 32/15 A3009 RMK A01 T03220154  RH  036%=      5-min Rain = 0
KEN1 140003Z 11009KT 33/15 A3009 RMK A01 T03260152  RH  035%=      5-min Rain = 0
KEN1 140004Z 11010KT 33/15 A3009 RMK A01 T03290150  RH  034%=      5-min Rain = 0
KEN1 140005Z 11010KT 33/15 A3009 RMK A01 T03300148  RH  033%=      5-min Rain = 0
KEN1 140006Z 11011KT 33/15 A3009 RMK A01 T03310148  RH  033%=      5-min Rain = 0
KEN1 140007Z 11010KT 33/15 A3009 RMK A01 T03310151  RH  034%=      5-min Rain = 0
KEN1 140008Z 10011KT 33/15 A3009 RMK A01 T03310152  RH  034%=      5-min Rain = 0
KEN1 140009Z 10010KT 33/15 A3009 RMK A01 T03310152  RH  034%=      5-min Rain = 0
KEN1 140010Z 10010KT 33/15 A3009 RMK A01 T03310154  RH  034%=      5-min Rain = 0
KEN1 140011Z 10013KT 33/15 A3009 RMK A01 T03310151  RH  034%=      5-min Rain = 0
KEN1 140012Z 11013KT 33/15 A3009 RMK A01 T03310149  RH  034%=      5-min Rain = 0
KEN1 140013Z 10010KT 33/15 A3009 RMK A01 T03300152  RH  034%=      5-min Rain = 0
KEN1 140014Z 10012KT 33/15 A3008 RMK A01 T03300152  RH  034%=      5-min Rain = 0
KEN1 140015Z 10012KT 33/15 A3008 RMK A01 T03290151  RH  034%=      5-min Rain = 0
KEN1 140016Z 10011KT 33/15 A3008 RMK A01 T03290151  RH  034%=      5-min Rain = 0
KEN1 140017Z 10013KT 33/15 A3008 RMK A01 T03290149  RH  034%=      5-min Rain = 0
KEN1 140018Z 10010KT 33/15 A3008 RMK A01 T03280150  RH  034%=      5-min Rain = 0
KEN1 140019Z 11008KT 33/15 A3008 RMK A01 T03270152  RH  035%=      5-min Rain = 0
KEN1 140020Z 10008KT 33/15 A3008 RMK A01 T03260154  RH  035%=      5-min Rain = 0
KEN1 140021Z 10010KT 33/15 A3008 RMK A01 T03260153  RH  035%=      5-min Rain = 0
KEN1 140022Z 10012KT 33/15 A3008 RMK A01 T03250150  RH  035%=      5-min Rain = 0
KEN1 140023Z 11011KT 33/15 A3008 RMK A01 T03250150  RH  035%=      5-min Rain = 0
KEN1 140024Z 12011KT 33/15 A3008 RMK A01 T03250150  RH  035%=      5-min Rain = 0
KEN1 140025Z 12010KT 33/15 A3008 RMK A01 T03260149  RH  034%=      5-min Rain = 0
KEN1 140026Z 12010KT 33/15 A3008 RMK A01 T03260152  RH  035%=      5-min Rain = 0
KEN1 140027Z 12011KT 33/15 A3008 RMK A01 T03260152  RH  035%=      5-min Rain = 0
KEN1 140028Z 11012KT 33/15 A3008 RMK A01 T03260152  RH  035%=      5-min Rain = 0
KEN1 140029Z 11011KT 33/15 A3008 RMK A01 T03260151  RH  035%=      5-min Rain = 0
KEN1 140030Z 11011KT 33/15 A3008 RMK A01 T03260152  RH  035%=      5-min Rain = 0
KEN1 140031Z 12010KT 32/15 A3008 RMK A01 T03240153  RH  036%=      5-min Rain = 0
KEN1 140032Z 11010KT 32/15 A3008 RMK A01 T03230152  RH  036%=      5-min Rain = 0
KEN1 140033Z 11012KT 32/15 A3008 RMK A01 T03230153  RH  036%=      5-min Rain = 0
KEN1 140034Z 13011KT 32/15 A3008 RMK A01 T03230153  RH  036%=      5-min Rain = 0
KEN1 140035Z 12012KT 32/15 A3008 RMK A01 T03240153  RH  036%=      5-min Rain = 0
KEN1 140036Z 12010KT 32/15 A3008 RMK A01 T03240152  RH  035%=      5-min Rain = 0
KEN1 140037Z 11009KT 32/15 A3008 RMK A01 T03240154  RH  036%=      5-min Rain = 0
KEN1 140038Z 11009KT 32/15 A3008 RMK A01 T03240153  RH  036%=      5-min Rain = 0
KEN1 140039Z 12011KT 32/15 A3008 RMK A01 T03240154  RH  036%=      5-min Rain = 0
KEN1 140040Z 11009KT 32/15 A3008 RMK A01 T03230153  RH  036%=      5-min Rain = 0
KEN1 140041Z 11009KT 32/15 A3008 RMK A01 T03230153  RH  036%=      5-min Rain = 0
KEN1 140042Z 11010KT 32/15 A3008 RMK A01 T03230153  RH  036%=      5-min Rain = 0
KEN1 140043Z 11011KT 32/15 A3008 RMK A01 T03230150  RH  035%=      5-min Rain = 0
KEN1 140044Z 12011KT 32/15 A3008 RMK A01 T03230151  RH  035%=      5-min Rain = 0
KEN1 140045Z 12011KT 32/15 A3008 RMK A01 T03230150  RH  035%=      5-min Rain = 0
KEN1 140046Z 11011KT 32/15 A3008 RMK A01 T03230152  RH  036%=      5-min Rain = 0
KEN1 140047Z 10010KT 32/15 A3008 RMK A01 T03220153  RH  036%=      5-min Rain = 0
KEN1 140048Z 11008KT 32/15 A3008 RMK A01 T03210154  RH  037%=      5-min Rain = 0
KEN1 140049Z 11010KT 32/16 A3008 RMK A01 T03210156  RH  037%=      5-min Rain = 0
KEN1 140050Z 11010KT 32/16 A3008 RMK A01 T03200156  RH  037%=      5-min Rain = 0
KEN1 140051Z 11010KT 32/15 A3008 RMK A01 T03210154  RH  037%=      5-min Rain = 0
KEN1 140052Z 11010KT 32/15 A3008 RMK A01 T03200153  RH  036%=      5-min Rain = 0
KEN1 140053Z 11010KT 32/15 A3008 RMK A01 T03190153  RH  037%=      5-min Rain = 0
KEN1 140054Z 11011KT 32/15 A3008 RMK A01 T03190152  RH  036%=      5-min Rain = 0
KEN1 140055Z 11012KT 32/15 A3008 RMK A01 T03190149  RH  036%=      5-min Rain = 0
KEN1 140056Z 11010KT 32/15 A3008 RMK A01 T03190149  RH  036%=      5-min Rain = 0
KEN1 140057Z 10010KT 32/15 A3008 RMK A01 T03190152  RH  036%=      5-min Rain = 0
KEN1 140058Z 10011KT 32/15 A3008 RMK A01 T03180152  RH  037%=      5-min Rain = 0
KEN1 140059Z 10011KT 32/15 A3009 RMK A01 T03170151  RH  037%=      5-min Rain = 0
KEN1 140100Z 10009KT 32/15 A3009 RMK A01 T03170153  RH  037%=      5-min Rain = 0
KEN1 140101Z 10010KT 32/15 A3009 RMK A01 T03160154  RH  038%=      5-min Rain = 0
KEN1 140102Z 10010KT 32/15 A3009 RMK A01 T03150154  RH  038%=      5-min Rain = 0
KEN1 140103Z 10010KT 32/15 A3009 RMK A01 T03150154  RH  038%=      5-min Rain = 0
KEN1 140104Z 10009KT 31/15 A3009 RMK A01 T03140154  RH  038%=      5-min Rain = 0
KEN1 140105Z 10008KT 31/16 A3009 RMK A01 T03140157  RH  039%=      5-min Rain = 0
KEN1 140106Z 10011KT 31/16 A3009 RMK A01 T03130155  RH  039%=      5-min Rain = 0
KEN1 140107Z 10009KT 31/15 A3009 RMK A01 T03120154  RH  038%=      5-min Rain = 0
KEN1 140108Z 10009KT 31/16 A3009 RMK A01 T03120155  RH  039%=      5-min Rain = 0
KEN1 140109Z 10009KT 31/15 A3009 RMK A01 T03110154  RH  039%=      5-min Rain = 0
KEN1 140110Z 10009KT 31/15 A3009 RMK A01 T03100154  RH  039%=      5-min Rain = 0
KEN1 140111Z 10010KT 31/15 A3009 RMK A01 T03090154  RH  039%=      5-min Rain = 0
KEN1 140112Z 10010KT 31/15 A3009 RMK A01 T03090153  RH  039%=      5-min Rain = 0
KEN1 140113Z 10010KT 31/15 A3009 RMK A01 T03080153  RH  039%=      5-min Rain = 0
KEN1 140114Z 10009KT 31/15 A3009 RMK A01 T03080154  RH  039%=      5-min Rain = 0
KEN1 140115Z 10008KT 31/15 A3009 RMK A01 T03080154  RH  039%=      5-min Rain = 0
KEN1 140116Z 10007KT 31/16 A3009 RMK A01 T03070156  RH  040%=      5-min Rain = 0
KEN1 140117Z 10008KT 31/16 A3009 RMK A01 T03050156  RH  041%=      5-min Rain = 0
KEN1 140118Z 10009KT 30/16 A3009 RMK A01 T03040155  RH  040%=      5-min Rain = 0
KEN1 140119Z 10008KT 30/16 A3009 RMK A01 T03040155  RH  041%=      5-min Rain = 0
KEN1 140120Z 10009KT 30/16 A3009 RMK A01 T03030156  RH  041%=      5-min Rain = 0
KEN1 140121Z 10009KT 30/16 A3009 RMK A01 T03030156  RH  041%=      5-min Rain = 0
KEN1 140122Z 09008KT 30/16 A3009 RMK A01 T03020156  RH  041%=      5-min Rain = 0
KEN1 140123Z 09008KT 30/16 A301 RMK A01 T03010157  RH  042%=      5-min Rain = 0
KEN1 140124Z 09007KT 30/16 A301 RMK A01 T03000157  RH  042%=      5-min Rain = 0
KEN1 140125Z 09007KT 30/16 A301 RMK A01 T02990158  RH  042%=      5-min Rain = 0
KEN1 140126Z 09007KT 30/16 A301 RMK A01 T02980159  RH  043%=      5-min Rain = 0
KEN1 140127Z 09006KT 30/16 A301 RMK A01 T02960159  RH  043%=      5-min Rain = 0
KEN1 140128Z 09007KT 29/16 A301 RMK A01 T02940159  RH  044%=      5-min Rain = 0
KEN1 140129Z 09007KT 29/16 A301 RMK A01 T02930159  RH  044%=      5-min Rain = 0
KEN1 140130Z 09008KT 29/16 A301 RMK A01 T02920159  RH  045%=      5-min Rain = 0
KEN1 140131Z 09008KT 29/16 A301 RMK A01 T02900159  RH  045%=      5-min Rain = 0
KEN1 140132Z 09008KT 29/16 A301 RMK A01 T02890159  RH  045%=      5-min Rain = 0
KEN1 140133Z 09008KT 29/16 A3011 RMK A01 T02880159  RH  046%=      5-min Rain = 0
KEN1 140134Z 09008KT 29/16 A3011 RMK A01 T02870158  RH  046%=      5-min Rain = 0
KEN1 140135Z 09008KT 29/16 A3011 RMK A01 T02870159  RH  046%=      5-min Rain = 0
KEN1 140136Z 09008KT 29/16 A3011 RMK A01 T02870158  RH  046%=      5-min Rain = 0
KEN1 140137Z 09008KT 29/16 A3011 RMK A01 T02860158  RH  046%=      5-min Rain = 0
KEN1 140138Z 08008KT 29/16 A3011 RMK A01 T02860159  RH  046%=      5-min Rain = 0
KEN1 140139Z 08008KT 29/16 A3011 RMK A01 T02850159  RH  046%=      5-min Rain = 0
KEN1 140140Z 08008KT 28/16 A3011 RMK A01 T02840159  RH  047%=      5-min Rain = 0
KEN1 140141Z 08008KT 28/16 A3011 RMK A01 T02840160  RH  047%=      5-min Rain = 0
KEN1 140142Z 08008KT 28/16 A3011 RMK A01 T02820160  RH  047%=      5-min Rain = 0
KEN1 140143Z 08008KT 28/16 A3011 RMK A01 T02810160  RH  048%=      5-min Rain = 0
KEN1 140144Z 08009KT 28/16 A3011 RMK A01 T02800160  RH  048%=      5-min Rain = 0
KEN1 140145Z 08009KT 28/16 A3011 RMK A01 T02800160  RH  048%=      5-min Rain = 0
KEN1 140146Z 08009KT 28/16 A3011 RMK A01 T02800160  RH  048%=      5-min Rain = 0
KEN1 140147Z 08009KT 28/16 A3012 RMK A01 T02790160  RH  048%=      5-min Rain = 0
KEN1 140148Z 08008KT 28/16 A3012 RMK A01 T02780161  RH  049%=      5-min Rain = 0
KEN1 140149Z 08008KT 28/16 A3012 RMK A01 T02770162  RH  049%=      5-min Rain = 0
KEN1 140150Z 08008KT 28/16 A3012 RMK A01 T02750162  RH  050%=      5-min Rain = 0
KEN1 140151Z 08009KT 27/16 A3012 RMK A01 T02740161  RH  050%=      5-min Rain = 0
KEN1 140152Z 08009KT 27/16 A3012 RMK A01 T02740162  RH  050%=      5-min Rain = 0
KEN1 140153Z 08009KT 27/16 A3012 RMK A01 T02730161  RH  050%=      5-min Rain = 0
KEN1 140154Z 08009KT 27/16 A3012 RMK A01 T02730161  RH  050%=      5-min Rain = 0
KEN1 140155Z 08009KT 27/16 A3012 RMK A01 T02730162  RH  051%=      5-min Rain = 0
KEN1 140156Z 08009KT 27/16 A3012 RMK A01 T02720161  RH  051%=      5-min Rain = 0
KEN1 140157Z 08009KT 27/16 A3012 RMK A01 T02730162  RH  051%=      5-min Rain = 0
KEN1 140158Z 08008KT 27/16 A3012 RMK A01 T02720163  RH  051%=      5-min Rain = 0
KEN1 140159Z 07008KT 27/16 A3012 RMK A01 T02710164  RH  052%=      5-min Rain = 0
KEN1 140200Z 07008KT 27/16 A3012 RMK A01 T02690164  RH  052%=      5-min Rain = 0.09
KEN1 140201Z 07009KT 27/16 A3012 RMK A01 T02680164  RH  053%=      5-min Rain = 0.05
KEN1 140202Z 07008KT 27/16 A3013 RMK A01 T02670164  RH  053%=      5-min Rain = 0
KEN1 140203Z 07008KT 27/17 A3013 RMK A01 T02660165  RH  054%=      5-min Rain = 0
KEN1 140204Z 08008KT 27/17 A3013 RMK A01 T02660165  RH  054%=      5-min Rain = 0
KEN1 140205Z 08008KT 27/17 A3013 RMK A01 T02650166  RH  055%=      5-min Rain = 0
KEN1 140206Z 08009KT 26/17 A3013 RMK A01 T02630165  RH  055%=      5-min Rain = 0
KEN1 140207Z 08009KT 26/17 A3013 RMK A01 T02630165  RH  055%=      5-min Rain = 0
KEN1 140208Z 08009KT 26/16 A3013 RMK A01 T02630164  RH  054%=      5-min Rain = 0
KEN1 140209Z 08009KT 26/16 A3013 RMK A01 T02640164  RH  054%=      5-min Rain = 0
KEN1 140210Z 08009KT 27/16 A3013 RMK A01 T02650164  RH  054%=      5-min Rain = 0
KEN1 140211Z 08009KT 27/16 A3013 RMK A01 T02650164  RH  054%=      5-min Rain = 0
KEN1 140212Z 08009KT 27/17 A3013 RMK A01 T02650165  RH  054%=      5-min Rain = 0
KEN1 140213Z 08009KT 26/16 A3013 RMK A01 T02640164  RH  054%=      5-min Rain = 0
KEN1 140214Z 08009KT 27/16 A3014 RMK A01 T02650163  RH  054%=      5-min Rain = 0.11
KEN1 140215Z 08009KT 27/16 A3014 RMK A01 T02660163  RH  053%=      5-min Rain = 0
KEN1 140216Z 08009KT 27/16 A3014 RMK A01 T02660163  RH  053%=      5-min Rain = 0
KEN1 140217Z 08009KT 27/16 A3014 RMK A01 T02670164  RH  053%=      5-min Rain = 0
KEN1 140218Z 08009KT 27/16 A3014 RMK A01 T02670164  RH  053%=      5-min Rain = 0
KEN1 140219Z 08008KT 27/16 A3014 RMK A01 T02660164  RH  053%=      5-min Rain = 0
KEN1 140220Z 08009KT 27/16 A3014 RMK A01 T02660164  RH  053%=      5-min Rain = 0
KEN1 140221Z 08009KT 27/16 A3014 RMK A01 T02660164  RH  053%=      5-min Rain = 0
KEN1 140222Z 09009KT 27/16 A3014 RMK A01 T02650164  RH  054%=      5-min Rain = 0
KEN1 140223Z 09009KT 27/16 A3014 RMK A01 T02650164  RH  054%=      5-min Rain = 0
KEN1 140224Z 09009KT 27/16 A3014 RMK A01 T02650164  RH  054%=      5-min Rain = 0
KEN1 140225Z 09009KT 27/16 A3014 RMK A01 T02650164  RH  054%=      5-min Rain = 0
KEN1 140226Z 10009KT 27/16 A3014 RMK A01 T02650164  RH  054%=      5-min Rain = 0
KEN1 140227Z 10009KT 27/16 A3014 RMK A01 T02650164  RH  054%=      5-min Rain = 0
KEN1 140228Z 10008KT 27/16 A3014 RMK A01 T02660164  RH  053%=      5-min Rain = 0
KEN1 140229Z 10008KT 27/16 A3014 RMK A01 T02670164  RH  053%=      5-min Rain = 0
KEN1 140230Z 10008KT 27/17 A3014 RMK A01 T02680165  RH  053%=      5-min Rain = 0
KEN1 140231Z 10009KT 27/17 A3014 RMK A01 T02680165  RH  053%=      5-min Rain = 0
KEN1 140232Z 10008KT 27/17 A3014 RMK A01 T02680166  RH  054%=      5-min Rain = 0
KEN1 140233Z 11008KT 27/17 A3015 RMK A01 T02670168  RH  055%=      5-min Rain = 0
KEN1 140234Z 13008KT 27/17 A3015 RMK A01 T02650168  RH  055%=      5-min Rain = 0
KEN1 140235Z 13008KT 27/17 A3015 RMK A01 T02650170  RH  056%=      5-min Rain = 0
KEN1 140236Z 12007KT 26/17 A3015 RMK A01 T02640170  RH  056%=      5-min Rain = 0
KEN1 140237Z 12007KT 26/17 A3015 RMK A01 T02640169  RH  056%=      5-min Rain = 0
KEN1 140238Z 12010KT 26/17 A3015 RMK A01 T02630167  RH  056%=      5-min Rain = 0
KEN1 140239Z 12011KT 27/16 A3015 RMK A01 T02650163  RH  054%=      5-min Rain = 0
KEN1 140240Z 11011KT 27/16 A3015 RMK A01 T02690163  RH  052%=      5-min Rain = 0
KEN1 140241Z 10012KT 27/16 A3015 RMK A01 T02700163  RH  052%=      5-min Rain = 0
KEN1 140242Z 10012KT 27/16 A3015 RMK A01 T02710162  RH  051%=      5-min Rain = 0
KEN1 140243Z 09011KT 27/16 A3015 RMK A01 T02720162  RH  051%=      5-min Rain = 0
KEN1 140244Z 10011KT 27/16 A3015 RMK A01 T02730162  RH  051%=      5-min Rain = 0
KEN1 140245Z 10010KT 27/16 A3015 RMK A01 T02730163  RH  051%=      5-min Rain = 0
KEN1 140246Z 10011KT 27/16 A3015 RMK A01 T02730163  RH  051%=      5-min Rain = 0
KEN1 140247Z 10011KT 27/16 A3015 RMK A01 T02720163  RH  051%=      5-min Rain = 0
KEN1 140248Z 10011KT 27/16 A3015 RMK A01 T02720163  RH  051%=      5-min Rain = 0
KEN1 140249Z 10011KT 27/16 A3015 RMK A01 T02720163  RH  051%=      5-min Rain = 0
KEN1 140250Z 10012KT 27/16 A3015 RMK A01 T02720163  RH  051%=      5-min Rain = 0
KEN1 140251Z 10010KT 27/16 A3015 RMK A01 T02720163  RH  051%=      5-min Rain = 0
KEN1 140252Z 11011KT 27/16 A3015 RMK A01 T02720164  RH  052%=      5-min Rain = 0
KEN1 140253Z 11011KT 27/16 A3015 RMK A01 T02710164  RH  052%=      5-min Rain = 0
KEN1 140254Z 11011KT 27/16 A3015 RMK A01 T02710164  RH  052%=      5-min Rain = 0
KEN1 140255Z 11011KT 27/16 A3015 RMK A01 T02700164  RH  052%=      5-min Rain = 0
KEN1 140256Z 11011KT 27/16 A3015 RMK A01 T02700164  RH  052%=      5-min Rain = 0
KEN1 140257Z 12011KT 27/16 A3015 RMK A01 T02690164  RH  052%=      5-min Rain = 0
KEN1 140258Z 12010KT 27/17 A3015 RMK A01 T02690165  RH  053%=      5-min Rain = 0
KEN1 140259Z 12010KT 27/17 A3015 RMK A01 T02690166  RH  053%=      5-min Rain = 0
KEN1 140300Z 12010KT 27/17 A3015 RMK A01 T02680166  RH  054%=      5-min Rain = 0
KEN1 140301Z 12012KT 27/17 A3015 RMK A01 T02660165  RH  054%=      5-min Rain = 0
KEN1 140302Z 12012KT 27/17 A3015 RMK A01 T02660165  RH  054%=      5-min Rain = 0
KEN1 140303Z 12013KT 27/16 A3015 RMK A01 T02660164  RH  053%=      5-min Rain = 0
KEN1 140304Z 12014KT 27/16 A3015 RMK A01 T02670164  RH  053%=      5-min Rain = 0
KEN1 140305Z 12013KT 27/16 A3015 RMK A01 T02670164  RH  053%=      5-min Rain = 0
KEN1 140306Z 13013KT 27/16 A3014 RMK A01 T02670163  RH  053%=      5-min Rain = 0
KEN1 140307Z 13012KT 27/16 A3014 RMK A01 T02680163  RH  053%=      5-min Rain = 0
KEN1 140308Z 13013KT 27/16 A3014 RMK A01 T02680163  RH  053%=      5-min Rain = 0
KEN1 140309Z 13013KT 27/16 A3014 RMK A01 T02670163  RH  053%=      5-min Rain = 0
KEN1 140310Z 13013KT 27/16 A3014 RMK A01 T02680164  RH  053%=      5-min Rain = 0
KEN1 140311Z 13012KT 27/16 A3014 RMK A01 T02680163  RH  053%=      5-min Rain = 0
KEN1 140312Z 13011KT 27/16 A3014 RMK A01 T02670164  RH  053%=      5-min Rain = 0
KEN1 140313Z 13013KT 27/16 A3014 RMK A01 T02670164  RH  053%=      5-min Rain = 0
KEN1 140314Z 13012KT 27/16 A3014 RMK A01 T02670163  RH  053%=      5-min Rain = 0
KEN1 140315Z 13012KT 27/16 A3014 RMK A01 T02670163  RH  053%=      5-min Rain = 0
KEN1 140316Z 13013KT 27/16 A3014 RMK A01 T02670164  RH  053%=      5-min Rain = 0
KEN1 140317Z 13014KT 27/16 A3014 RMK A01 T02670163  RH  053%=      5-min Rain = 0
KEN1 140318Z 13013KT 27/16 A3014 RMK A01 T02670163  RH  053%=      5-min Rain = 0
KEN1 140319Z 13014KT 27/16 A3014 RMK A01 T02670163  RH  053%=      5-min Rain = 0
KEN1 140320Z 12013KT 27/16 A3014 RMK A01 T02670163  RH  053%=      5-min Rain = 0
KEN1 140321Z 13012KT 27/16 A3014 RMK A01 T02670162  RH  053%=      5-min Rain = 0
KEN1 140322Z 13012KT 27/16 A3014 RMK A01 T02670163  RH  053%=      5-min Rain = 0
KEN1 140323Z 13012KT 27/16 A3014 RMK A01 T02660163  RH  053%=      5-min Rain = 0
KEN1 140324Z 13014KT 27/16 A3014 RMK A01 T02660162  RH  053%=      5-min Rain = 0
KEN1 140325Z 13013KT 27/16 A3014 RMK A01 T02660161  RH  052%=      5-min Rain = 0
KEN1 140326Z 12014KT 27/16 A3014 RMK A01 T02670162  RH  053%=      5-min Rain = 0
KEN1 140327Z 12014KT 27/16 A3014 RMK A01 T02670161  RH  052%=      5-min Rain = 0
KEN1 140328Z 13014KT 27/16 A3014 RMK A01 T02670161  RH  052%=      5-min Rain = 0
KEN1 140329Z 13013KT 27/16 A3014 RMK A01 T02670161  RH  052%=      5-min Rain = 0
KEN1 140330Z 13013KT 27/16 A3014 RMK A01 T02670161  RH  052%=      5-min Rain = 0
KEN1 140331Z 13013KT 27/16 A3014 RMK A01 T02680162  RH  052%=      5-min Rain = 0
KEN1 140332Z 13012KT 27/16 A3014 RMK A01 T02680162  RH  052%=      5-min Rain = 0
KEN1 140333Z 13011KT 27/16 A3014 RMK A01 T02680162  RH  052%=      5-min Rain = 0
KEN1 140334Z 13013KT 27/16 A3014 RMK A01 T02680162  RH  052%=      5-min Rain = 0
KEN1 140335Z 13012KT 27/16 A3014 RMK A01 T02680162  RH  052%=      5-min Rain = 0
KEN1 140336Z 13012KT 27/16 A3014 RMK A01 T02680162  RH  052%=      5-min Rain = 0
KEN1 140337Z 13014G19KT 27/16 A3014 RMK A01 T02680162  RH  052%=      5-min Rain = 0
KEN1 140338Z 13016KT 27/16 A3014 RMK A01 T02680161  RH  052%=      5-min Rain = 0
KEN1 140339Z 13015KT 27/16 A3014 RMK A01 T02690161  RH  052%=      5-min Rain = 0
KEN1 140340Z 13015KT 27/16 A3014 RMK A01 T02690161  RH  052%=      5-min Rain = 0
KEN1 140341Z 13013KT 27/16 A3014 RMK A01 T02690161  RH  052%=      5-min Rain = 0
KEN1 140342Z 13014KT 27/16 A3014 RMK A01 T02690162  RH  052%=      5-min Rain = 0
KEN1 140343Z 13013KT 27/16 A3014 RMK A01 T02690162  RH  052%=      5-min Rain = 0
KEN1 140344Z 13013KT 27/16 A3014 RMK A01 T02690162  RH  052%=      5-min Rain = 0
KEN1 140345Z 14012KT 27/16 A3014 RMK A01 T02690162  RH  052%=      5-min Rain = 0
KEN1 140346Z 14012KT 27/16 A3015 RMK A01 T02680162  RH  052%=      5-min Rain = 0
KEN1 140347Z 14011KT 27/16 A3015 RMK A01 T02680163  RH  053%=      5-min Rain = 0
KEN1 140348Z 15011KT 27/16 A3015 RMK A01 T02670163  RH  053%=      5-min Rain = 0
KEN1 140349Z 14011KT 27/16 A3015 RMK A01 T02660164  RH  053%=      5-min Rain = 0
KEN1 140350Z 15012KT 27/16 A3015 RMK A01 T02660164  RH  054%=      5-min Rain = 0
KEN1 140351Z 15011KT 27/16 A3015 RMK A01 T02650164  RH  054%=      5-min Rain = 0
KEN1 140352Z 15011KT 26/16 A3015 RMK A01 T02640164  RH  054%=      5-min Rain = 0
KEN1 140353Z 15011KT 26/16 A3015 RMK A01 T02630164  RH  054%=      5-min Rain = 0
KEN1 140354Z 15011KT 26/16 A3015 RMK A01 T02620164  RH  055%=      5-min Rain = 0
KEN1 140355Z 15009KT 26/16 A3015 RMK A01 T02620164  RH  055%=      5-min Rain = 0
KEN1 140356Z 15011KT 26/16 A3015 RMK A01 T02610164  RH  055%=      5-min Rain = 0
KEN1 140357Z 15012KT 26/16 A3015 RMK A01 T02600162  RH  055%=      5-min Rain = 0
KEN1 140358Z 15010KT 26/16 A3015 RMK A01 T02610163  RH  055%=      5-min Rain = 0
KEN1 140359Z 15009KT 26/16 A3015 RMK A01 T02600163  RH  055%=      5-min Rain = 0
KEN1 140400Z 16009KT 26/16 A3015 RMK A01 T02600163  RH  055%=      5-min Rain = 0
KEN1 140401Z 15010KT 26/16 A3015 RMK A01 T02590162  RH  055%=      5-min Rain = 0
KEN1 140402Z 15010KT 26/16 A3015 RMK A01 T02590161  RH  055%=      5-min Rain = 0
KEN1 140403Z 15008KT 26/16 A3015 RMK A01 T02590162  RH  055%=      5-min Rain = 0
KEN1 140404Z 15008KT 26/16 A3015 RMK A01 T02580163  RH  056%=      5-min Rain = 0
KEN1 140405Z 15008KT 26/16 A3016 RMK A01 T02570163  RH  056%=      5-min Rain = 0
KEN1 140406Z 15008KT 26/16 A3016 RMK A01 T02560163  RH  056%=      5-min Rain = 0
KEN1 140407Z 14008KT 26/16 A3016 RMK A01 T02550163  RH  056%=      5-min Rain = 0
KEN1 140408Z 14008KT 26/16 A3016 RMK A01 T02550163  RH  057%=      5-min Rain = 0
KEN1 140409Z 14008KT 25/16 A3016 RMK A01 T02540163  RH  057%=      5-min Rain = 0
KEN1 140410Z 14009KT 25/16 A3016 RMK A01 T02540163  RH  057%=      5-min Rain = 0
KEN1 140411Z 13008KT 25/16 A3016 RMK A01 T02530163  RH  057%=      5-min Rain = 0
KEN1 140412Z 13008KT 25/16 A3016 RMK A01 T02530163  RH  058%=      5-min Rain = 0
KEN1 140413Z 13008KT 25/16 A3016 RMK A01 T02520163  RH  058%=      5-min Rain = 0
KEN1 140414Z 14009KT 25/16 A3016 RMK A01 T02520164  RH  058%=      5-min Rain = 0
KEN1 140415Z 14010KT 25/16 A3016 RMK A01 T02520163  RH  058%=      5-min Rain = 0
KEN1 140416Z 14010KT 25/16 A3016 RMK A01 T02520163  RH  058%=      5-min Rain = 0
KEN1 140417Z 14010KT 25/16 A3016 RMK A01 T02530164  RH  058%=      5-min Rain = 0
KEN1 140418Z 14010KT 25/17 A3016 RMK A01 T02530165  RH  058%=      5-min Rain = 0
KEN1 140419Z 14011KT 25/17 A3016 RMK A01 T02530165  RH  058%=      5-min Rain = 0
KEN1 140420Z 15010KT 25/17 A3016 RMK A01 T02530165  RH  058%=      5-min Rain = 0
KEN1 140421Z 14011KT 25/17 A3016 RMK A01 T02530166  RH  058%=      5-min Rain = 0
KEN1 140422Z 14010KT 25/17 A3016 RMK A01 T02530166  RH  058%=      5-min Rain = 0
KEN1 140423Z 14011KT 25/17 A3016 RMK A01 T02530166  RH  059%=      5-min Rain = 0
KEN1 140424Z 14012KT 25/17 A3016 RMK A01 T02520166  RH  059%=      5-min Rain = 0
KEN1 140425Z 14011KT 25/17 A3017 RMK A01 T02520166  RH  059%=      5-min Rain = 0
KEN1 140426Z 14010KT 25/17 A3017 RMK A01 T02520166  RH  059%=      5-min Rain = 0
KEN1 140427Z 14011KT 25/17 A3017 RMK A01 T02530167  RH  059%=      5-min Rain = 0
KEN1 140428Z 14011KT 25/17 A3017 RMK A01 T02530168  RH  059%=      5-min Rain = 0
KEN1 140429Z 14011KT 25/17 A3017 RMK A01 T02520167  RH  059%=      5-min Rain = 0
KEN1 140430Z 13011KT 25/17 A3017 RMK A01 T02520168  RH  059%=      5-min Rain = 0
KEN1 140431Z 13010KT 25/17 A3017 RMK A01 T02520167  RH  059%=      5-min Rain = 0
KEN1 140432Z 14011KT 25/17 A3017 RMK A01 T02520167  RH  059%=      5-min Rain = 0
KEN1 140433Z 14011KT 25/17 A3017 RMK A01 T02520167  RH  059%=      5-min Rain = 0
KEN1 140434Z 14010KT 25/17 A3017 RMK A01 T02520167  RH  059%=      5-min Rain = 0
KEN1 140435Z 14010KT 25/17 A3017 RMK A01 T02520168  RH  059%=      5-min Rain = 0
KEN1 140436Z 14011KT 25/17 A3017 RMK A01 T02530167  RH  059%=      5-min Rain = 0
KEN1 140437Z 13010KT 25/17 A3017 RMK A01 T02530168  RH  059%=      5-min Rain = 0
KEN1 140438Z 13010KT 25/17 A3017 RMK A01 T02530169  RH  059%=      5-min Rain = 0
KEN1 140439Z 13009KT 25/17 A3017 RMK A01 T02530169  RH  060%=      5-min Rain = 0
KEN1 140440Z 14009KT 25/17 A3017 RMK A01 T02510169  RH  060%=      5-min Rain = 0
KEN1 140441Z 14008KT 25/17 A3017 RMK A01 T02500169  RH  061%=      5-min Rain = 0
KEN1 140442Z 14008KT 25/17 A3017 RMK A01 T02490169  RH  061%=      5-min Rain = 0
KEN1 140443Z 14009KT 25/17 A3018 RMK A01 T02480170  RH  062%=      5-min Rain = 0
KEN1 140444Z 14009KT 25/17 A3018 RMK A01 T02480169  RH  062%=      5-min Rain = 0
KEN1 140445Z 14009KT 25/17 A3018 RMK A01 T02480169  RH  062%=      5-min Rain = 0
KEN1 140446Z 14009KT 25/17 A3018 RMK A01 T02480170  RH  062%=      5-min Rain = 0
KEN1 140447Z 14009KT 25/17 A3018 RMK A01 T02480169  RH  062%=      5-min Rain = 0
KEN1 140448Z 14010KT 25/17 A3018 RMK A01 T02480169  RH  062%=      5-min Rain = 0
KEN1 140449Z 14010KT 25/17 A3018 RMK A01 T02480169  RH  061%=      5-min Rain = 0
KEN1 140450Z 14011KT 25/17 A3018 RMK A01 T02490169  RH  061%=      5-min Rain = 0
KEN1 140451Z 14010KT 25/17 A3018 RMK A01 T02480169  RH  061%=      5-min Rain = 0
KEN1 140452Z 14011KT 25/17 A3018 RMK A01 T02490169  RH  061%=      5-min Rain = 0
KEN1 140453Z 14010KT 25/17 A3018 RMK A01 T02500169  RH  061%=      5-min Rain = 0
KEN1 140454Z 13010KT 25/17 A3018 RMK A01 T02490170  RH  061%=      5-min Rain = 0
KEN1 140455Z 13010KT 25/17 A3018 RMK A01 T02490169  RH  061%=      5-min Rain = 0
KEN1 140456Z 13010KT 25/17 A3018 RMK A01 T02490169  RH  061%=      5-min Rain = 0
KEN1 140457Z 13009KT 25/17 A3018 RMK A01 T02480170  RH  062%=      5-min Rain = 0
KEN1 140458Z 13010KT 25/17 A3018 RMK A01 T02480170  RH  062%=      5-min Rain = 0
KEN1 140459Z 13009KT 25/17 A3018 RMK A01 T02470170  RH  062%=      5-min Rain = 0

Page generated in 0.1527 seconds.